<?xml version="1.0" encoding="utf-8"?>
<gpx xmlns:xsi="http://www.w3.org/2001/XMLSchema-instance" xmlns:xsd="http://www.w3.org/2001/XMLSchema" version="1.1" creator="Shapelink.com" xmlns="http://www.topografix.com/GPX/1/1" xmlns:gpxtpx="http://www.garmin.com/xmlschemas/TrackPointExtension/v1">
  <metadata>
    <name>Løping 2.38 km, 2013-05-15</name>
    <desc></desc>
    <author><name>Mikael Blom</name></author> 
    <time>2013-05-15T20:43:11Z</time>
  </metadata>
  <trk>
    <name>Løping 2.38 km, 2013-05-15</name>
    <trkseg>
      <trkpt lat="59.9538363" lon="17.7149245">
        <ele>41.474</ele>
        <time>2013-05-15T20:43:11Z</time>
      </trkpt>
      <trkpt lat="59.9538307" lon="17.7149248">
        <ele>41.474</ele>
        <time>2013-05-15T20:43:12Z</time>
      </trkpt>
      <trkpt lat="59.9538183" lon="17.7149325">
        <ele>41.474</ele>
        <time>2013-05-15T20:43:13Z</time>
      </trkpt>
      <trkpt lat="59.9537981" lon="17.7149368">
        <ele>40.9934</ele>
        <time>2013-05-15T20:43:14Z</time>
      </trkpt>
      <trkpt lat="59.9537727" lon="17.7149467">
        <ele>40.5128</ele>
        <time>2013-05-15T20:43:15Z</time>
      </trkpt>
      <trkpt lat="59.9537498" lon="17.7149574">
        <ele>40.5128</ele>
        <time>2013-05-15T20:43:16Z</time>
      </trkpt>
      <trkpt lat="59.953728" lon="17.7149707">
        <ele>40.5128</ele>
        <time>2013-05-15T20:43:17Z</time>
      </trkpt>
      <trkpt lat="59.9537116" lon="17.7149959">
        <ele>40.5128</ele>
        <time>2013-05-15T20:43:18Z</time>
      </trkpt>
      <trkpt lat="59.9536963" lon="17.7150107">
        <ele>40.5128</ele>
        <time>2013-05-15T20:43:19Z</time>
      </trkpt>
      <trkpt lat="59.9536805" lon="17.7150199">
        <ele>40.0321</ele>
        <time>2013-05-15T20:43:20Z</time>
      </trkpt>
      <trkpt lat="59.953662" lon="17.7150348">
        <ele>40.0321</ele>
        <time>2013-05-15T20:43:21Z</time>
      </trkpt>
      <trkpt lat="59.9536445" lon="17.7150463">
        <ele>39.5513</ele>
        <time>2013-05-15T20:43:22Z</time>
      </trkpt>
      <trkpt lat="59.9536312" lon="17.7150678">
        <ele>39.5513</ele>
        <time>2013-05-15T20:43:23Z</time>
      </trkpt>
      <trkpt lat="59.9536197" lon="17.7150859">
        <ele>38.5901</ele>
        <time>2013-05-15T20:43:24Z</time>
      </trkpt>
      <trkpt lat="59.9536036" lon="17.7151115">
        <ele>38.5901</ele>
        <time>2013-05-15T20:43:25Z</time>
      </trkpt>
      <trkpt lat="59.9535847" lon="17.7151473">
        <ele>38.1094</ele>
        <time>2013-05-15T20:43:26Z</time>
      </trkpt>
      <trkpt lat="59.9535624" lon="17.7151711">
        <ele>38.1094</ele>
        <time>2013-05-15T20:43:27Z</time>
      </trkpt>
      <trkpt lat="59.9535359" lon="17.7151934">
        <ele>38.5901</ele>
        <time>2013-05-15T20:43:28Z</time>
      </trkpt>
      <trkpt lat="59.9535104" lon="17.7152191">
        <ele>39.0707</ele>
        <time>2013-05-15T20:43:29Z</time>
      </trkpt>
      <trkpt lat="59.9534881" lon="17.7152498">
        <ele>40.0321</ele>
        <time>2013-05-15T20:43:30Z</time>
      </trkpt>
      <trkpt lat="59.9534609" lon="17.7152815">
        <ele>40.5128</ele>
        <time>2013-05-15T20:43:31Z</time>
      </trkpt>
      <trkpt lat="59.9534399" lon="17.7153211">
        <ele>40.9934</ele>
        <time>2013-05-15T20:43:32Z</time>
      </trkpt>
      <trkpt lat="59.9534173" lon="17.7153558">
        <ele>41.474</ele>
        <time>2013-05-15T20:43:33Z</time>
      </trkpt>
      <trkpt lat="59.9533877" lon="17.7153902">
        <ele>41.9547</ele>
        <time>2013-05-15T20:43:34Z</time>
      </trkpt>
      <trkpt lat="59.9533609" lon="17.7154207">
        <ele>41.9547</ele>
        <time>2013-05-15T20:43:35Z</time>
      </trkpt>
      <trkpt lat="59.9533385" lon="17.7154511">
        <ele>41.9547</ele>
        <time>2013-05-15T20:43:36Z</time>
      </trkpt>
      <trkpt lat="59.9533139" lon="17.7154865">
        <ele>42.4354</ele>
        <time>2013-05-15T20:43:37Z</time>
      </trkpt>
      <trkpt lat="59.9532924" lon="17.7155122">
        <ele>42.4354</ele>
        <time>2013-05-15T20:43:38Z</time>
      </trkpt>
      <trkpt lat="59.9532744" lon="17.7155208">
        <ele>42.916</ele>
        <time>2013-05-15T20:43:39Z</time>
      </trkpt>
      <trkpt lat="59.9532531" lon="17.715534">
        <ele>42.916</ele>
        <time>2013-05-15T20:43:40Z</time>
      </trkpt>
      <trkpt lat="59.9532359" lon="17.7155552">
        <ele>43.3966</ele>
        <time>2013-05-15T20:43:41Z</time>
      </trkpt>
      <trkpt lat="59.9532169" lon="17.7155792">
        <ele>43.3966</ele>
        <time>2013-05-15T20:43:42Z</time>
      </trkpt>
      <trkpt lat="59.9532029" lon="17.7156009">
        <ele>43.3966</ele>
        <time>2013-05-15T20:43:43Z</time>
      </trkpt>
      <trkpt lat="59.9531893" lon="17.7156268">
        <ele>43.3966</ele>
        <time>2013-05-15T20:43:44Z</time>
      </trkpt>
      <trkpt lat="59.9531709" lon="17.71565">
        <ele>43.3966</ele>
        <time>2013-05-15T20:43:45Z</time>
      </trkpt>
      <trkpt lat="59.9531493" lon="17.7156735">
        <ele>43.3966</ele>
        <time>2013-05-15T20:43:46Z</time>
      </trkpt>
      <trkpt lat="59.9531262" lon="17.715704">
        <ele>43.8773</ele>
        <time>2013-05-15T20:43:47Z</time>
      </trkpt>
      <trkpt lat="59.9531091" lon="17.715731">
        <ele>44.358</ele>
        <time>2013-05-15T20:43:48Z</time>
      </trkpt>
      <trkpt lat="59.9530947" lon="17.7157634">
        <ele>44.8386</ele>
        <time>2013-05-15T20:43:49Z</time>
      </trkpt>
      <trkpt lat="59.953082" lon="17.7158092">
        <ele>45.3192</ele>
        <time>2013-05-15T20:43:50Z</time>
      </trkpt>
      <trkpt lat="59.9530661" lon="17.7158508">
        <ele>45.3192</ele>
        <time>2013-05-15T20:43:51Z</time>
      </trkpt>
      <trkpt lat="59.9530553" lon="17.7158967">
        <ele>44.8386</ele>
        <time>2013-05-15T20:43:52Z</time>
      </trkpt>
      <trkpt lat="59.9530453" lon="17.7159335">
        <ele>45.3192</ele>
        <time>2013-05-15T20:43:53Z</time>
      </trkpt>
      <trkpt lat="59.9530346" lon="17.7159791">
        <ele>45.7999</ele>
        <time>2013-05-15T20:43:54Z</time>
      </trkpt>
      <trkpt lat="59.9530245" lon="17.716019">
        <ele>46.2806</ele>
        <time>2013-05-15T20:43:55Z</time>
      </trkpt>
      <trkpt lat="59.9530127" lon="17.7160491">
        <ele>46.7612</ele>
        <time>2013-05-15T20:43:56Z</time>
      </trkpt>
      <trkpt lat="59.9529994" lon="17.7160916">
        <ele>46.7612</ele>
        <time>2013-05-15T20:43:57Z</time>
      </trkpt>
      <trkpt lat="59.9529905" lon="17.7161289">
        <ele>46.2806</ele>
        <time>2013-05-15T20:43:58Z</time>
      </trkpt>
      <trkpt lat="59.9529797" lon="17.7161537">
        <ele>46.2806</ele>
        <time>2013-05-15T20:43:59Z</time>
      </trkpt>
      <trkpt lat="59.9529725" lon="17.7161806">
        <ele>45.7999</ele>
        <time>2013-05-15T20:44:00Z</time>
      </trkpt>
      <trkpt lat="59.9529671" lon="17.7162113">
        <ele>45.7999</ele>
        <time>2013-05-15T20:44:01Z</time>
      </trkpt>
      <trkpt lat="59.9529635" lon="17.7162643">
        <ele>45.7999</ele>
        <time>2013-05-15T20:44:02Z</time>
      </trkpt>
      <trkpt lat="59.9529592" lon="17.7163149">
        <ele>46.2806</ele>
        <time>2013-05-15T20:44:03Z</time>
      </trkpt>
      <trkpt lat="59.9529521" lon="17.7163469">
        <ele>45.7999</ele>
        <time>2013-05-15T20:44:04Z</time>
      </trkpt>
      <trkpt lat="59.9529408" lon="17.7163894">
        <ele>45.7999</ele>
        <time>2013-05-15T20:44:05Z</time>
      </trkpt>
      <trkpt lat="59.9529329" lon="17.7164443">
        <ele>46.2806</ele>
        <time>2013-05-15T20:44:06Z</time>
      </trkpt>
      <trkpt lat="59.9529261" lon="17.716494">
        <ele>46.2806</ele>
        <time>2013-05-15T20:44:07Z</time>
      </trkpt>
      <trkpt lat="59.9529201" lon="17.7165416">
        <ele>47.2418</ele>
        <time>2013-05-15T20:44:08Z</time>
      </trkpt>
      <trkpt lat="59.9529165" lon="17.7165796">
        <ele>46.7612</ele>
        <time>2013-05-15T20:44:09Z</time>
      </trkpt>
      <trkpt lat="59.9529105" lon="17.7166313">
        <ele>47.2418</ele>
        <time>2013-05-15T20:44:10Z</time>
      </trkpt>
      <trkpt lat="59.9529091" lon="17.7167007">
        <ele>47.7225</ele>
        <time>2013-05-15T20:44:11Z</time>
      </trkpt>
      <trkpt lat="59.9529093" lon="17.7167628">
        <ele>47.7225</ele>
        <time>2013-05-15T20:44:12Z</time>
      </trkpt>
      <trkpt lat="59.9529133" lon="17.7168198">
        <ele>48.684</ele>
        <time>2013-05-15T20:44:13Z</time>
      </trkpt>
      <trkpt lat="59.9529131" lon="17.7168756">
        <ele>48.684</ele>
        <time>2013-05-15T20:44:14Z</time>
      </trkpt>
      <trkpt lat="59.9529107" lon="17.7169302">
        <ele>49.1646</ele>
        <time>2013-05-15T20:44:15Z</time>
      </trkpt>
      <trkpt lat="59.9529059" lon="17.7169815">
        <ele>49.1646</ele>
        <time>2013-05-15T20:44:16Z</time>
      </trkpt>
      <trkpt lat="59.9528974" lon="17.7170259">
        <ele>49.1646</ele>
        <time>2013-05-15T20:44:17Z</time>
      </trkpt>
      <trkpt lat="59.9528868" lon="17.7170722">
        <ele>48.684</ele>
        <time>2013-05-15T20:44:18Z</time>
      </trkpt>
      <trkpt lat="59.9528755" lon="17.7171185">
        <ele>48.684</ele>
        <time>2013-05-15T20:44:19Z</time>
      </trkpt>
      <trkpt lat="59.952866" lon="17.7171746">
        <ele>49.1646</ele>
        <time>2013-05-15T20:44:20Z</time>
      </trkpt>
      <trkpt lat="59.9528532" lon="17.7172222">
        <ele>49.1646</ele>
        <time>2013-05-15T20:44:21Z</time>
      </trkpt>
      <trkpt lat="59.9528402" lon="17.7172819">
        <ele>49.6453</ele>
        <time>2013-05-15T20:44:22Z</time>
      </trkpt>
      <trkpt lat="59.9528258" lon="17.7173175">
        <ele>49.1646</ele>
        <time>2013-05-15T20:44:23Z</time>
      </trkpt>
      <trkpt lat="59.9528162" lon="17.7173517">
        <ele>49.1646</ele>
        <time>2013-05-15T20:44:24Z</time>
      </trkpt>
      <trkpt lat="59.9528061" lon="17.7173907">
        <ele>49.1646</ele>
        <time>2013-05-15T20:44:25Z</time>
      </trkpt>
      <trkpt lat="59.9527896" lon="17.7174347">
        <ele>49.1646</ele>
        <time>2013-05-15T20:44:26Z</time>
      </trkpt>
      <trkpt lat="59.9527776" lon="17.7174889">
        <ele>49.6453</ele>
        <time>2013-05-15T20:44:27Z</time>
      </trkpt>
      <trkpt lat="59.9527645" lon="17.7175332">
        <ele>49.6453</ele>
        <time>2013-05-15T20:44:28Z</time>
      </trkpt>
      <trkpt lat="59.9527522" lon="17.7175676">
        <ele>49.1646</ele>
        <time>2013-05-15T20:44:29Z</time>
      </trkpt>
      <trkpt lat="59.952745" lon="17.7176072">
        <ele>49.1646</ele>
        <time>2013-05-15T20:44:30Z</time>
      </trkpt>
      <trkpt lat="59.9527358" lon="17.7176451">
        <ele>49.6453</ele>
        <time>2013-05-15T20:44:31Z</time>
      </trkpt>
      <trkpt lat="59.9527225" lon="17.7176783">
        <ele>49.6453</ele>
        <time>2013-05-15T20:44:32Z</time>
      </trkpt>
      <trkpt lat="59.952704" lon="17.7177205">
        <ele>49.6453</ele>
        <time>2013-05-15T20:44:33Z</time>
      </trkpt>
      <trkpt lat="59.9526873" lon="17.7177523">
        <ele>49.1646</ele>
        <time>2013-05-15T20:44:34Z</time>
      </trkpt>
      <trkpt lat="59.9526726" lon="17.7177888">
        <ele>48.684</ele>
        <time>2013-05-15T20:44:35Z</time>
      </trkpt>
      <trkpt lat="59.9526578" lon="17.7178248">
        <ele>49.1646</ele>
        <time>2013-05-15T20:44:36Z</time>
      </trkpt>
      <trkpt lat="59.9526438" lon="17.7178501">
        <ele>49.1646</ele>
        <time>2013-05-15T20:44:37Z</time>
      </trkpt>
      <trkpt lat="59.952632" lon="17.7178688">
        <ele>48.684</ele>
        <time>2013-05-15T20:44:38Z</time>
      </trkpt>
      <trkpt lat="59.9526213" lon="17.7178896">
        <ele>48.2034</ele>
        <time>2013-05-15T20:44:39Z</time>
      </trkpt>
      <trkpt lat="59.9526111" lon="17.7179117">
        <ele>47.7225</ele>
        <time>2013-05-15T20:44:40Z</time>
      </trkpt>
      <trkpt lat="59.9526013" lon="17.7179419">
        <ele>46.7612</ele>
        <time>2013-05-15T20:44:41Z</time>
      </trkpt>
      <trkpt lat="59.9525884" lon="17.7179764">
        <ele>46.2806</ele>
        <time>2013-05-15T20:44:42Z</time>
      </trkpt>
      <trkpt lat="59.9525804" lon="17.718019">
        <ele>45.7999</ele>
        <time>2013-05-15T20:44:43Z</time>
      </trkpt>
      <trkpt lat="59.9525671" lon="17.7180546">
        <ele>45.7999</ele>
        <time>2013-05-15T20:44:44Z</time>
      </trkpt>
      <trkpt lat="59.9525518" lon="17.7180939">
        <ele>45.7999</ele>
        <time>2013-05-15T20:44:45Z</time>
      </trkpt>
      <trkpt lat="59.9525424" lon="17.7181416">
        <ele>46.2806</ele>
        <time>2013-05-15T20:44:46Z</time>
      </trkpt>
      <trkpt lat="59.9525366" lon="17.7182039">
        <ele>47.2418</ele>
        <time>2013-05-15T20:44:47Z</time>
      </trkpt>
      <trkpt lat="59.9525305" lon="17.7182668">
        <ele>48.2034</ele>
        <time>2013-05-15T20:44:48Z</time>
      </trkpt>
      <trkpt lat="59.9525246" lon="17.7183092">
        <ele>48.684</ele>
        <time>2013-05-15T20:44:49Z</time>
      </trkpt>
      <trkpt lat="59.9525202" lon="17.7183467">
        <ele>48.684</ele>
        <time>2013-05-15T20:44:50Z</time>
      </trkpt>
      <trkpt lat="59.9525128" lon="17.7183897">
        <ele>48.684</ele>
        <time>2013-05-15T20:44:51Z</time>
      </trkpt>
      <trkpt lat="59.9525035" lon="17.7184464">
        <ele>48.684</ele>
        <time>2013-05-15T20:44:52Z</time>
      </trkpt>
      <trkpt lat="59.9524948" lon="17.7184892">
        <ele>48.684</ele>
        <time>2013-05-15T20:44:53Z</time>
      </trkpt>
      <trkpt lat="59.9524854" lon="17.7185265">
        <ele>48.684</ele>
        <time>2013-05-15T20:44:54Z</time>
      </trkpt>
      <trkpt lat="59.9524782" lon="17.7185733">
        <ele>48.684</ele>
        <time>2013-05-15T20:44:55Z</time>
      </trkpt>
      <trkpt lat="59.9524709" lon="17.7186262">
        <ele>49.1646</ele>
        <time>2013-05-15T20:44:56Z</time>
      </trkpt>
      <trkpt lat="59.9524606" lon="17.718676">
        <ele>49.1646</ele>
        <time>2013-05-15T20:44:57Z</time>
      </trkpt>
      <trkpt lat="59.9524512" lon="17.7187266">
        <ele>49.6453</ele>
        <time>2013-05-15T20:44:58Z</time>
      </trkpt>
      <trkpt lat="59.9524495" lon="17.7187746">
        <ele>50.126</ele>
        <time>2013-05-15T20:44:59Z</time>
      </trkpt>
      <trkpt lat="59.9524425" lon="17.7188068">
        <ele>50.126</ele>
        <time>2013-05-15T20:45:00Z</time>
      </trkpt>
      <trkpt lat="59.9524286" lon="17.7188389">
        <ele>50.126</ele>
        <time>2013-05-15T20:45:01Z</time>
      </trkpt>
      <trkpt lat="59.9524189" lon="17.7188717">
        <ele>50.126</ele>
        <time>2013-05-15T20:45:02Z</time>
      </trkpt>
      <trkpt lat="59.9524124" lon="17.7189039">
        <ele>49.6453</ele>
        <time>2013-05-15T20:45:03Z</time>
      </trkpt>
      <trkpt lat="59.9524049" lon="17.7189364">
        <ele>49.1646</ele>
        <time>2013-05-15T20:45:04Z</time>
      </trkpt>
      <trkpt lat="59.9523953" lon="17.7189692">
        <ele>48.684</ele>
        <time>2013-05-15T20:45:05Z</time>
      </trkpt>
      <trkpt lat="59.9523887" lon="17.7190359">
        <ele>49.6453</ele>
        <time>2013-05-15T20:45:06Z</time>
      </trkpt>
      <trkpt lat="59.9523793" lon="17.7190928">
        <ele>48.684</ele>
        <time>2013-05-15T20:45:07Z</time>
      </trkpt>
      <trkpt lat="59.9523711" lon="17.7191341">
        <ele>48.2034</ele>
        <time>2013-05-15T20:45:08Z</time>
      </trkpt>
      <trkpt lat="59.952363" lon="17.7191731">
        <ele>47.7225</ele>
        <time>2013-05-15T20:45:09Z</time>
      </trkpt>
      <trkpt lat="59.9523588" lon="17.7192157">
        <ele>47.7225</ele>
        <time>2013-05-15T20:45:10Z</time>
      </trkpt>
      <trkpt lat="59.9523559" lon="17.7192788">
        <ele>48.2034</ele>
        <time>2013-05-15T20:45:11Z</time>
      </trkpt>
      <trkpt lat="59.9523563" lon="17.7193565">
        <ele>48.684</ele>
        <time>2013-05-15T20:45:12Z</time>
      </trkpt>
      <trkpt lat="59.9523554" lon="17.7194152">
        <ele>49.1646</ele>
        <time>2013-05-15T20:45:13Z</time>
      </trkpt>
      <trkpt lat="59.9523566" lon="17.7194607">
        <ele>49.1646</ele>
        <time>2013-05-15T20:45:14Z</time>
      </trkpt>
      <trkpt lat="59.9523627" lon="17.719514">
        <ele>48.684</ele>
        <time>2013-05-15T20:45:15Z</time>
      </trkpt>
      <trkpt lat="59.9523679" lon="17.7195623">
        <ele>48.2034</ele>
        <time>2013-05-15T20:45:16Z</time>
      </trkpt>
      <trkpt lat="59.9523751" lon="17.7196011">
        <ele>47.2418</ele>
        <time>2013-05-15T20:45:17Z</time>
      </trkpt>
      <trkpt lat="59.9523875" lon="17.7196345">
        <ele>46.7612</ele>
        <time>2013-05-15T20:45:18Z</time>
      </trkpt>
      <trkpt lat="59.9524015" lon="17.7196803">
        <ele>46.2806</ele>
        <time>2013-05-15T20:45:19Z</time>
      </trkpt>
      <trkpt lat="59.9524161" lon="17.719721">
        <ele>46.2806</ele>
        <time>2013-05-15T20:45:20Z</time>
      </trkpt>
      <trkpt lat="59.952426" lon="17.7197611">
        <ele>45.7999</ele>
        <time>2013-05-15T20:45:21Z</time>
      </trkpt>
      <trkpt lat="59.9524322" lon="17.719802">
        <ele>44.8386</ele>
        <time>2013-05-15T20:45:22Z</time>
      </trkpt>
      <trkpt lat="59.9524392" lon="17.7198424">
        <ele>44.358</ele>
        <time>2013-05-15T20:45:23Z</time>
      </trkpt>
      <trkpt lat="59.9524493" lon="17.7198922">
        <ele>43.8773</ele>
        <time>2013-05-15T20:45:24Z</time>
      </trkpt>
      <trkpt lat="59.9524568" lon="17.7199289">
        <ele>43.3966</ele>
        <time>2013-05-15T20:45:25Z</time>
      </trkpt>
      <trkpt lat="59.9524648" lon="17.7199662">
        <ele>43.3966</ele>
        <time>2013-05-15T20:45:26Z</time>
      </trkpt>
      <trkpt lat="59.9524689" lon="17.7200139">
        <ele>43.3966</ele>
        <time>2013-05-15T20:45:27Z</time>
      </trkpt>
      <trkpt lat="59.952473" lon="17.7200615">
        <ele>43.3966</ele>
        <time>2013-05-15T20:45:28Z</time>
      </trkpt>
      <trkpt lat="59.9524801" lon="17.7201186">
        <ele>42.916</ele>
        <time>2013-05-15T20:45:29Z</time>
      </trkpt>
      <trkpt lat="59.9524829" lon="17.7201807">
        <ele>42.916</ele>
        <time>2013-05-15T20:45:30Z</time>
      </trkpt>
      <trkpt lat="59.9524828" lon="17.7202259">
        <ele>42.916</ele>
        <time>2013-05-15T20:45:31Z</time>
      </trkpt>
      <trkpt lat="59.9524802" lon="17.7202734">
        <ele>42.4354</ele>
        <time>2013-05-15T20:45:32Z</time>
      </trkpt>
      <trkpt lat="59.9524778" lon="17.7203225">
        <ele>42.4354</ele>
        <time>2013-05-15T20:45:33Z</time>
      </trkpt>
      <trkpt lat="59.952479" lon="17.7203764">
        <ele>42.916</ele>
        <time>2013-05-15T20:45:34Z</time>
      </trkpt>
      <trkpt lat="59.9524773" lon="17.7204231">
        <ele>42.916</ele>
        <time>2013-05-15T20:45:35Z</time>
      </trkpt>
      <trkpt lat="59.9524772" lon="17.720464">
        <ele>43.3966</ele>
        <time>2013-05-15T20:45:36Z</time>
      </trkpt>
      <trkpt lat="59.9524854" lon="17.7205196">
        <ele>43.8773</ele>
        <time>2013-05-15T20:45:37Z</time>
      </trkpt>
      <trkpt lat="59.9524901" lon="17.7205728">
        <ele>44.8386</ele>
        <time>2013-05-15T20:45:38Z</time>
      </trkpt>
      <trkpt lat="59.9524912" lon="17.7206195">
        <ele>45.3192</ele>
        <time>2013-05-15T20:45:39Z</time>
      </trkpt>
      <trkpt lat="59.952494" lon="17.7206641">
        <ele>45.3192</ele>
        <time>2013-05-15T20:45:40Z</time>
      </trkpt>
      <trkpt lat="59.9524928" lon="17.7207045">
        <ele>44.8386</ele>
        <time>2013-05-15T20:45:41Z</time>
      </trkpt>
      <trkpt lat="59.9524876" lon="17.7207403">
        <ele>44.8386</ele>
        <time>2013-05-15T20:45:42Z</time>
      </trkpt>
      <trkpt lat="59.9524826" lon="17.7207845">
        <ele>43.8773</ele>
        <time>2013-05-15T20:45:43Z</time>
      </trkpt>
      <trkpt lat="59.9524807" lon="17.720834">
        <ele>43.8773</ele>
        <time>2013-05-15T20:45:44Z</time>
      </trkpt>
      <trkpt lat="59.9524741" lon="17.7208846">
        <ele>43.3966</ele>
        <time>2013-05-15T20:45:45Z</time>
      </trkpt>
      <trkpt lat="59.9524751" lon="17.7209469">
        <ele>44.358</ele>
        <time>2013-05-15T20:45:46Z</time>
      </trkpt>
      <trkpt lat="59.9524782" lon="17.7210038">
        <ele>44.358</ele>
        <time>2013-05-15T20:45:47Z</time>
      </trkpt>
      <trkpt lat="59.9524787" lon="17.721063">
        <ele>44.358</ele>
        <time>2013-05-15T20:45:48Z</time>
      </trkpt>
      <trkpt lat="59.9524804" lon="17.7211198">
        <ele>44.8386</ele>
        <time>2013-05-15T20:45:49Z</time>
      </trkpt>
      <trkpt lat="59.9524796" lon="17.7211601">
        <ele>44.358</ele>
        <time>2013-05-15T20:45:50Z</time>
      </trkpt>
      <trkpt lat="59.9524756" lon="17.7211965">
        <ele>44.358</ele>
        <time>2013-05-15T20:45:51Z</time>
      </trkpt>
      <trkpt lat="59.9524766" lon="17.7212477">
        <ele>44.358</ele>
        <time>2013-05-15T20:45:52Z</time>
      </trkpt>
      <trkpt lat="59.9524738" lon="17.721293">
        <ele>44.358</ele>
        <time>2013-05-15T20:45:53Z</time>
      </trkpt>
      <trkpt lat="59.9524746" lon="17.7213352">
        <ele>43.8773</ele>
        <time>2013-05-15T20:45:54Z</time>
      </trkpt>
      <trkpt lat="59.9524803" lon="17.7213897">
        <ele>44.8386</ele>
        <time>2013-05-15T20:45:55Z</time>
      </trkpt>
      <trkpt lat="59.9524848" lon="17.7214415">
        <ele>44.8386</ele>
        <time>2013-05-15T20:45:56Z</time>
      </trkpt>
      <trkpt lat="59.9524916" lon="17.7214973">
        <ele>45.3192</ele>
        <time>2013-05-15T20:45:57Z</time>
      </trkpt>
      <trkpt lat="59.9525026" lon="17.7215524">
        <ele>45.3192</ele>
        <time>2013-05-15T20:45:58Z</time>
      </trkpt>
      <trkpt lat="59.9525115" lon="17.7216021">
        <ele>45.7999</ele>
        <time>2013-05-15T20:45:59Z</time>
      </trkpt>
      <trkpt lat="59.9525181" lon="17.7216512">
        <ele>45.7999</ele>
        <time>2013-05-15T20:46:00Z</time>
      </trkpt>
      <trkpt lat="59.9525218" lon="17.7217003">
        <ele>45.7999</ele>
        <time>2013-05-15T20:46:01Z</time>
      </trkpt>
      <trkpt lat="59.9525237" lon="17.7217455">
        <ele>44.8386</ele>
        <time>2013-05-15T20:46:02Z</time>
      </trkpt>
      <trkpt lat="59.9525257" lon="17.721785">
        <ele>44.358</ele>
        <time>2013-05-15T20:46:03Z</time>
      </trkpt>
      <trkpt lat="59.9525257" lon="17.7218254">
        <ele>43.8773</ele>
        <time>2013-05-15T20:46:04Z</time>
      </trkpt>
      <trkpt lat="59.952529" lon="17.7218726">
        <ele>43.8773</ele>
        <time>2013-05-15T20:46:05Z</time>
      </trkpt>
      <trkpt lat="59.952532" lon="17.7219129">
        <ele>43.8773</ele>
        <time>2013-05-15T20:46:06Z</time>
      </trkpt>
      <trkpt lat="59.952535" lon="17.7219559">
        <ele>44.358</ele>
        <time>2013-05-15T20:46:07Z</time>
      </trkpt>
      <trkpt lat="59.9525386" lon="17.7220072">
        <ele>44.358</ele>
        <time>2013-05-15T20:46:08Z</time>
      </trkpt>
      <trkpt lat="59.952542" lon="17.722071">
        <ele>45.3192</ele>
        <time>2013-05-15T20:46:09Z</time>
      </trkpt>
      <trkpt lat="59.9525388" lon="17.7221096">
        <ele>44.8386</ele>
        <time>2013-05-15T20:46:10Z</time>
      </trkpt>
      <trkpt lat="59.9525311" lon="17.7221428">
        <ele>43.8773</ele>
        <time>2013-05-15T20:46:11Z</time>
      </trkpt>
      <trkpt lat="59.95253" lon="17.7222051">
        <ele>44.358</ele>
        <time>2013-05-15T20:46:12Z</time>
      </trkpt>
      <trkpt lat="59.9525256" lon="17.7222679">
        <ele>44.8386</ele>
        <time>2013-05-15T20:46:13Z</time>
      </trkpt>
      <trkpt lat="59.9525181" lon="17.7223235">
        <ele>45.3192</ele>
        <time>2013-05-15T20:46:14Z</time>
      </trkpt>
      <trkpt lat="59.9525073" lon="17.7223544">
        <ele>44.358</ele>
        <time>2013-05-15T20:46:15Z</time>
      </trkpt>
      <trkpt lat="59.9524953" lon="17.7223874">
        <ele>43.8773</ele>
        <time>2013-05-15T20:46:16Z</time>
      </trkpt>
      <trkpt lat="59.9524817" lon="17.7224214">
        <ele>43.3966</ele>
        <time>2013-05-15T20:46:17Z</time>
      </trkpt>
      <trkpt lat="59.9524756" lon="17.7224766">
        <ele>43.8773</ele>
        <time>2013-05-15T20:46:18Z</time>
      </trkpt>
      <trkpt lat="59.952471" lon="17.7225292">
        <ele>44.358</ele>
        <time>2013-05-15T20:46:19Z</time>
      </trkpt>
      <trkpt lat="59.9524662" lon="17.7225811">
        <ele>44.358</ele>
        <time>2013-05-15T20:46:20Z</time>
      </trkpt>
      <trkpt lat="59.952463" lon="17.7226509">
        <ele>44.8386</ele>
        <time>2013-05-15T20:46:21Z</time>
      </trkpt>
      <trkpt lat="59.9524576" lon="17.7226987">
        <ele>44.8386</ele>
        <time>2013-05-15T20:46:22Z</time>
      </trkpt>
      <trkpt lat="59.9524549" lon="17.7227468">
        <ele>44.8386</ele>
        <time>2013-05-15T20:46:23Z</time>
      </trkpt>
      <trkpt lat="59.9524591" lon="17.722809">
        <ele>44.8386</ele>
        <time>2013-05-15T20:46:24Z</time>
      </trkpt>
      <trkpt lat="59.9524611" lon="17.722847">
        <ele>44.358</ele>
        <time>2013-05-15T20:46:25Z</time>
      </trkpt>
      <trkpt lat="59.9524626" lon="17.7228895">
        <ele>44.358</ele>
        <time>2013-05-15T20:46:26Z</time>
      </trkpt>
      <trkpt lat="59.9524637" lon="17.7229351">
        <ele>44.358</ele>
        <time>2013-05-15T20:46:27Z</time>
      </trkpt>
      <trkpt lat="59.9524699" lon="17.7229765">
        <ele>44.358</ele>
        <time>2013-05-15T20:46:28Z</time>
      </trkpt>
      <trkpt lat="59.9524747" lon="17.7230168">
        <ele>43.3966</ele>
        <time>2013-05-15T20:46:29Z</time>
      </trkpt>
      <trkpt lat="59.9524808" lon="17.7230601">
        <ele>42.916</ele>
        <time>2013-05-15T20:46:30Z</time>
      </trkpt>
      <trkpt lat="59.9524873" lon="17.7231027">
        <ele>42.4354</ele>
        <time>2013-05-15T20:46:31Z</time>
      </trkpt>
      <trkpt lat="59.9524958" lon="17.7231392">
        <ele>42.4354</ele>
        <time>2013-05-15T20:46:32Z</time>
      </trkpt>
      <trkpt lat="59.952508" lon="17.7231678">
        <ele>41.474</ele>
        <time>2013-05-15T20:46:33Z</time>
      </trkpt>
      <trkpt lat="59.9525138" lon="17.7232191">
        <ele>41.9547</ele>
        <time>2013-05-15T20:46:34Z</time>
      </trkpt>
      <trkpt lat="59.9525186" lon="17.7232624">
        <ele>41.9547</ele>
        <time>2013-05-15T20:46:35Z</time>
      </trkpt>
      <trkpt lat="59.9525289" lon="17.7232975">
        <ele>41.474</ele>
        <time>2013-05-15T20:46:36Z</time>
      </trkpt>
      <trkpt lat="59.9525393" lon="17.7233333">
        <ele>40.9934</ele>
        <time>2013-05-15T20:46:37Z</time>
      </trkpt>
      <trkpt lat="59.9525471" lon="17.7233737">
        <ele>40.5128</ele>
        <time>2013-05-15T20:46:38Z</time>
      </trkpt>
      <trkpt lat="59.9525609" lon="17.7234129">
        <ele>40.5128</ele>
        <time>2013-05-15T20:46:39Z</time>
      </trkpt>
      <trkpt lat="59.9525728" lon="17.7234503">
        <ele>40.0321</ele>
        <time>2013-05-15T20:46:40Z</time>
      </trkpt>
      <trkpt lat="59.9525827" lon="17.7234908">
        <ele>40.0321</ele>
        <time>2013-05-15T20:46:41Z</time>
      </trkpt>
      <trkpt lat="59.9525931" lon="17.723531">
        <ele>39.5513</ele>
        <time>2013-05-15T20:46:42Z</time>
      </trkpt>
      <trkpt lat="59.9526057" lon="17.7235747">
        <ele>39.5513</ele>
        <time>2013-05-15T20:46:43Z</time>
      </trkpt>
      <trkpt lat="59.9526185" lon="17.723618">
        <ele>39.0707</ele>
        <time>2013-05-15T20:46:44Z</time>
      </trkpt>
      <trkpt lat="59.9526315" lon="17.7236592">
        <ele>39.0707</ele>
        <time>2013-05-15T20:46:45Z</time>
      </trkpt>
      <trkpt lat="59.9526458" lon="17.7237001">
        <ele>38.5901</ele>
        <time>2013-05-15T20:46:46Z</time>
      </trkpt>
      <trkpt lat="59.9526567" lon="17.723741">
        <ele>38.5901</ele>
        <time>2013-05-15T20:46:47Z</time>
      </trkpt>
      <trkpt lat="59.9526643" lon="17.723786">
        <ele>38.5901</ele>
        <time>2013-05-15T20:46:48Z</time>
      </trkpt>
      <trkpt lat="59.9526672" lon="17.7238352">
        <ele>38.5901</ele>
        <time>2013-05-15T20:46:49Z</time>
      </trkpt>
      <trkpt lat="59.9526638" lon="17.7238881">
        <ele>38.1094</ele>
        <time>2013-05-15T20:46:50Z</time>
      </trkpt>
      <trkpt lat="59.95266" lon="17.7239397">
        <ele>38.1094</ele>
        <time>2013-05-15T20:46:51Z</time>
      </trkpt>
      <trkpt lat="59.9526538" lon="17.7239877">
        <ele>38.5901</ele>
        <time>2013-05-15T20:46:52Z</time>
      </trkpt>
      <trkpt lat="59.9526449" lon="17.7240311">
        <ele>38.5901</ele>
        <time>2013-05-15T20:46:53Z</time>
      </trkpt>
      <trkpt lat="59.9526346" lon="17.7240707">
        <ele>38.1094</ele>
        <time>2013-05-15T20:46:54Z</time>
      </trkpt>
      <trkpt lat="59.9526231" lon="17.7241086">
        <ele>37.6287</ele>
        <time>2013-05-15T20:46:55Z</time>
      </trkpt>
      <trkpt lat="59.9526098" lon="17.7241479">
        <ele>37.6287</ele>
        <time>2013-05-15T20:46:56Z</time>
      </trkpt>
      <trkpt lat="59.9525956" lon="17.7241866">
        <ele>37.6287</ele>
        <time>2013-05-15T20:46:57Z</time>
      </trkpt>
      <trkpt lat="59.9525795" lon="17.7242238">
        <ele>37.1481</ele>
        <time>2013-05-15T20:46:58Z</time>
      </trkpt>
      <trkpt lat="59.9525671" lon="17.7242551">
        <ele>37.1481</ele>
        <time>2013-05-15T20:46:59Z</time>
      </trkpt>
      <trkpt lat="59.9525545" lon="17.7242874">
        <ele>37.1481</ele>
        <time>2013-05-15T20:47:00Z</time>
      </trkpt>
      <trkpt lat="59.9525358" lon="17.7243243">
        <ele>36.6675</ele>
        <time>2013-05-15T20:47:01Z</time>
      </trkpt>
      <trkpt lat="59.9525192" lon="17.7243614">
        <ele>36.1868</ele>
        <time>2013-05-15T20:47:02Z</time>
      </trkpt>
      <trkpt lat="59.9525027" lon="17.7244038">
        <ele>36.1868</ele>
        <time>2013-05-15T20:47:03Z</time>
      </trkpt>
      <trkpt lat="59.9524866" lon="17.7244412">
        <ele>36.1868</ele>
        <time>2013-05-15T20:47:04Z</time>
      </trkpt>
      <trkpt lat="59.9524741" lon="17.7244771">
        <ele>36.6675</ele>
        <time>2013-05-15T20:47:05Z</time>
      </trkpt>
      <trkpt lat="59.9524614" lon="17.7245101">
        <ele>36.6675</ele>
        <time>2013-05-15T20:47:06Z</time>
      </trkpt>
      <trkpt lat="59.952447" lon="17.7245434">
        <ele>36.6675</ele>
        <time>2013-05-15T20:47:07Z</time>
      </trkpt>
      <trkpt lat="59.9524262" lon="17.7245735">
        <ele>36.1868</ele>
        <time>2013-05-15T20:47:08Z</time>
      </trkpt>
      <trkpt lat="59.9524051" lon="17.7246055">
        <ele>36.1868</ele>
        <time>2013-05-15T20:47:09Z</time>
      </trkpt>
      <trkpt lat="59.9523868" lon="17.724644">
        <ele>36.1868</ele>
        <time>2013-05-15T20:47:10Z</time>
      </trkpt>
      <trkpt lat="59.9523637" lon="17.7246775">
        <ele>35.7061</ele>
        <time>2013-05-15T20:47:11Z</time>
      </trkpt>
      <trkpt lat="59.9523409" lon="17.7247102">
        <ele>35.2255</ele>
        <time>2013-05-15T20:47:12Z</time>
      </trkpt>
      <trkpt lat="59.9523215" lon="17.7247459">
        <ele>35.2255</ele>
        <time>2013-05-15T20:47:13Z</time>
      </trkpt>
      <trkpt lat="59.9522983" lon="17.7247867">
        <ele>35.7061</ele>
        <time>2013-05-15T20:47:14Z</time>
      </trkpt>
      <trkpt lat="59.9522758" lon="17.7248194">
        <ele>36.1868</ele>
        <time>2013-05-15T20:47:15Z</time>
      </trkpt>
      <trkpt lat="59.9522556" lon="17.7248488">
        <ele>36.1868</ele>
        <time>2013-05-15T20:47:16Z</time>
      </trkpt>
      <trkpt lat="59.9522356" lon="17.7248817">
        <ele>36.6675</ele>
        <time>2013-05-15T20:47:17Z</time>
      </trkpt>
      <trkpt lat="59.9522154" lon="17.724919">
        <ele>36.6675</ele>
        <time>2013-05-15T20:47:18Z</time>
      </trkpt>
      <trkpt lat="59.9521989" lon="17.7249629">
        <ele>36.6675</ele>
        <time>2013-05-15T20:47:19Z</time>
      </trkpt>
      <trkpt lat="59.9521813" lon="17.7250017">
        <ele>37.1481</ele>
        <time>2013-05-15T20:47:20Z</time>
      </trkpt>
      <trkpt lat="59.9521625" lon="17.7250396">
        <ele>37.6287</ele>
        <time>2013-05-15T20:47:21Z</time>
      </trkpt>
      <trkpt lat="59.9521451" lon="17.7250767">
        <ele>37.6287</ele>
        <time>2013-05-15T20:47:22Z</time>
      </trkpt>
      <trkpt lat="59.9521296" lon="17.725114">
        <ele>38.1094</ele>
        <time>2013-05-15T20:47:23Z</time>
      </trkpt>
      <trkpt lat="59.952117" lon="17.7251494">
        <ele>38.1094</ele>
        <time>2013-05-15T20:47:24Z</time>
      </trkpt>
      <trkpt lat="59.9521022" lon="17.7251784">
        <ele>38.5901</ele>
        <time>2013-05-15T20:47:25Z</time>
      </trkpt>
      <trkpt lat="59.952084" lon="17.7252186">
        <ele>38.5901</ele>
        <time>2013-05-15T20:47:26Z</time>
      </trkpt>
      <trkpt lat="59.9520651" lon="17.7252617">
        <ele>39.0707</ele>
        <time>2013-05-15T20:47:27Z</time>
      </trkpt>
      <trkpt lat="59.9520472" lon="17.7253022">
        <ele>39.5513</ele>
        <time>2013-05-15T20:47:28Z</time>
      </trkpt>
      <trkpt lat="59.9520285" lon="17.7253385">
        <ele>39.5513</ele>
        <time>2013-05-15T20:47:29Z</time>
      </trkpt>
      <trkpt lat="59.952011" lon="17.7253742">
        <ele>39.5513</ele>
        <time>2013-05-15T20:47:30Z</time>
      </trkpt>
      <trkpt lat="59.9519944" lon="17.725415">
        <ele>40.0321</ele>
        <time>2013-05-15T20:47:31Z</time>
      </trkpt>
      <trkpt lat="59.951972" lon="17.7254515">
        <ele>40.0321</ele>
        <time>2013-05-15T20:47:32Z</time>
      </trkpt>
      <trkpt lat="59.9519509" lon="17.7254881">
        <ele>40.0321</ele>
        <time>2013-05-15T20:47:33Z</time>
      </trkpt>
      <trkpt lat="59.9519342" lon="17.7255297">
        <ele>40.0321</ele>
        <time>2013-05-15T20:47:34Z</time>
      </trkpt>
      <trkpt lat="59.9519156" lon="17.7255652">
        <ele>40.0321</ele>
        <time>2013-05-15T20:47:35Z</time>
      </trkpt>
      <trkpt lat="59.9518975" lon="17.7256036">
        <ele>40.5128</ele>
        <time>2013-05-15T20:47:36Z</time>
      </trkpt>
      <trkpt lat="59.9518825" lon="17.7256478">
        <ele>40.5128</ele>
        <time>2013-05-15T20:47:37Z</time>
      </trkpt>
      <trkpt lat="59.951867" lon="17.7256802">
        <ele>40.9934</ele>
        <time>2013-05-15T20:47:38Z</time>
      </trkpt>
      <trkpt lat="59.9518541" lon="17.7257171">
        <ele>40.9934</ele>
        <time>2013-05-15T20:47:39Z</time>
      </trkpt>
      <trkpt lat="59.9518426" lon="17.7257519">
        <ele>40.9934</ele>
        <time>2013-05-15T20:47:40Z</time>
      </trkpt>
      <trkpt lat="59.9518253" lon="17.7257881">
        <ele>41.474</ele>
        <time>2013-05-15T20:47:41Z</time>
      </trkpt>
      <trkpt lat="59.9518017" lon="17.7258197">
        <ele>41.474</ele>
        <time>2013-05-15T20:47:42Z</time>
      </trkpt>
      <trkpt lat="59.9517825" lon="17.725841">
        <ele>41.474</ele>
        <time>2013-05-15T20:47:43Z</time>
      </trkpt>
      <trkpt lat="59.9517628" lon="17.7258611">
        <ele>40.9934</ele>
        <time>2013-05-15T20:47:44Z</time>
      </trkpt>
      <trkpt lat="59.951743" lon="17.7258903">
        <ele>40.9934</ele>
        <time>2013-05-15T20:47:45Z</time>
      </trkpt>
      <trkpt lat="59.9517245" lon="17.7259259">
        <ele>40.9934</ele>
        <time>2013-05-15T20:47:46Z</time>
      </trkpt>
      <trkpt lat="59.9517069" lon="17.7259648">
        <ele>40.9934</ele>
        <time>2013-05-15T20:47:47Z</time>
      </trkpt>
      <trkpt lat="59.9516883" lon="17.7260037">
        <ele>40.9934</ele>
        <time>2013-05-15T20:47:48Z</time>
      </trkpt>
      <trkpt lat="59.9516687" lon="17.7260372">
        <ele>40.9934</ele>
        <time>2013-05-15T20:47:49Z</time>
      </trkpt>
      <trkpt lat="59.9516473" lon="17.7260693">
        <ele>40.9934</ele>
        <time>2013-05-15T20:47:50Z</time>
      </trkpt>
      <trkpt lat="59.9516246" lon="17.7261155">
        <ele>41.474</ele>
        <time>2013-05-15T20:47:51Z</time>
      </trkpt>
      <trkpt lat="59.9516031" lon="17.7261596">
        <ele>41.474</ele>
        <time>2013-05-15T20:47:52Z</time>
      </trkpt>
      <trkpt lat="59.9515839" lon="17.7262026">
        <ele>41.9547</ele>
        <time>2013-05-15T20:47:53Z</time>
      </trkpt>
      <trkpt lat="59.9515665" lon="17.726245">
        <ele>42.4354</ele>
        <time>2013-05-15T20:47:54Z</time>
      </trkpt>
      <trkpt lat="59.9515494" lon="17.7262819">
        <ele>42.916</ele>
        <time>2013-05-15T20:47:55Z</time>
      </trkpt>
      <trkpt lat="59.9515322" lon="17.7263176">
        <ele>42.916</ele>
        <time>2013-05-15T20:47:56Z</time>
      </trkpt>
      <trkpt lat="59.9515153" lon="17.7263524">
        <ele>43.3966</ele>
        <time>2013-05-15T20:47:57Z</time>
      </trkpt>
      <trkpt lat="59.951501" lon="17.72639">
        <ele>43.8773</ele>
        <time>2013-05-15T20:47:58Z</time>
      </trkpt>
      <trkpt lat="59.9514848" lon="17.7264372">
        <ele>43.8773</ele>
        <time>2013-05-15T20:47:59Z</time>
      </trkpt>
      <trkpt lat="59.951471" lon="17.7264818">
        <ele>44.358</ele>
        <time>2013-05-15T20:48:00Z</time>
      </trkpt>
      <trkpt lat="59.9514588" lon="17.7265175">
        <ele>44.358</ele>
        <time>2013-05-15T20:48:01Z</time>
      </trkpt>
      <trkpt lat="59.9514418" lon="17.7265461">
        <ele>44.358</ele>
        <time>2013-05-15T20:48:02Z</time>
      </trkpt>
      <trkpt lat="59.9514288" lon="17.7265819">
        <ele>44.8386</ele>
        <time>2013-05-15T20:48:03Z</time>
      </trkpt>
      <trkpt lat="59.9514155" lon="17.7266159">
        <ele>44.8386</ele>
        <time>2013-05-15T20:48:04Z</time>
      </trkpt>
      <trkpt lat="59.9514028" lon="17.7266458">
        <ele>44.8386</ele>
        <time>2013-05-15T20:48:05Z</time>
      </trkpt>
      <trkpt lat="59.9513934" lon="17.7266764">
        <ele>45.3192</ele>
        <time>2013-05-15T20:48:06Z</time>
      </trkpt>
      <trkpt lat="59.9513855" lon="17.7267108">
        <ele>45.3192</ele>
        <time>2013-05-15T20:48:07Z</time>
      </trkpt>
      <trkpt lat="59.9513796" lon="17.7267413">
        <ele>44.8386</ele>
        <time>2013-05-15T20:48:08Z</time>
      </trkpt>
      <trkpt lat="59.9513765" lon="17.7267748">
        <ele>44.8386</ele>
        <time>2013-05-15T20:48:09Z</time>
      </trkpt>
      <trkpt lat="59.9513762" lon="17.7268134">
        <ele>44.358</ele>
        <time>2013-05-15T20:48:10Z</time>
      </trkpt>
      <trkpt lat="59.9513774" lon="17.7268517">
        <ele>44.358</ele>
        <time>2013-05-15T20:48:11Z</time>
      </trkpt>
      <trkpt lat="59.9513801" lon="17.7268817">
        <ele>43.8773</ele>
        <time>2013-05-15T20:48:12Z</time>
      </trkpt>
      <trkpt lat="59.9513832" lon="17.7269142">
        <ele>43.8773</ele>
        <time>2013-05-15T20:48:13Z</time>
      </trkpt>
      <trkpt lat="59.9513956" lon="17.72696">
        <ele>43.8773</ele>
        <time>2013-05-15T20:48:14Z</time>
      </trkpt>
      <trkpt lat="59.951406" lon="17.7270117">
        <ele>43.8773</ele>
        <time>2013-05-15T20:48:15Z</time>
      </trkpt>
      <trkpt lat="59.951412" lon="17.7270664">
        <ele>43.8773</ele>
        <time>2013-05-15T20:48:16Z</time>
      </trkpt>
      <trkpt lat="59.9514225" lon="17.7271232">
        <ele>43.8773</ele>
        <time>2013-05-15T20:48:17Z</time>
      </trkpt>
      <trkpt lat="59.9514303" lon="17.7271733">
        <ele>43.8773</ele>
        <time>2013-05-15T20:48:18Z</time>
      </trkpt>
      <trkpt lat="59.9514405" lon="17.7272313">
        <ele>43.8773</ele>
        <time>2013-05-15T20:48:19Z</time>
      </trkpt>
      <trkpt lat="59.9514489" lon="17.7272794">
        <ele>43.8773</ele>
        <time>2013-05-15T20:48:20Z</time>
      </trkpt>
      <trkpt lat="59.951452" lon="17.7273204">
        <ele>43.3966</ele>
        <time>2013-05-15T20:48:21Z</time>
      </trkpt>
      <trkpt lat="59.9514589" lon="17.727364">
        <ele>42.916</ele>
        <time>2013-05-15T20:48:22Z</time>
      </trkpt>
      <trkpt lat="59.9514656" lon="17.7274052">
        <ele>42.4354</ele>
        <time>2013-05-15T20:48:23Z</time>
      </trkpt>
      <trkpt lat="59.9514699" lon="17.7274406">
        <ele>41.9547</ele>
        <time>2013-05-15T20:48:24Z</time>
      </trkpt>
      <trkpt lat="59.9514749" lon="17.7274784">
        <ele>41.9547</ele>
        <time>2013-05-15T20:48:25Z</time>
      </trkpt>
      <trkpt lat="59.9514826" lon="17.7275208">
        <ele>41.9547</ele>
        <time>2013-05-15T20:48:26Z</time>
      </trkpt>
      <trkpt lat="59.9514882" lon="17.7275613">
        <ele>41.9547</ele>
        <time>2013-05-15T20:48:27Z</time>
      </trkpt>
      <trkpt lat="59.9514932" lon="17.7276069">
        <ele>41.9547</ele>
        <time>2013-05-15T20:48:28Z</time>
      </trkpt>
      <trkpt lat="59.9515012" lon="17.7276427">
        <ele>41.474</ele>
        <time>2013-05-15T20:48:29Z</time>
      </trkpt>
      <trkpt lat="59.9515147" lon="17.7276811">
        <ele>41.474</ele>
        <time>2013-05-15T20:48:30Z</time>
      </trkpt>
      <trkpt lat="59.9515328" lon="17.7277125">
        <ele>40.9934</ele>
        <time>2013-05-15T20:48:31Z</time>
      </trkpt>
      <trkpt lat="59.9515499" lon="17.7277455">
        <ele>41.474</ele>
        <time>2013-05-15T20:48:32Z</time>
      </trkpt>
      <trkpt lat="59.9515658" lon="17.7277789">
        <ele>41.9547</ele>
        <time>2013-05-15T20:48:33Z</time>
      </trkpt>
      <trkpt lat="59.9515883" lon="17.7278061">
        <ele>41.474</ele>
        <time>2013-05-15T20:48:34Z</time>
      </trkpt>
      <trkpt lat="59.9516079" lon="17.7278339">
        <ele>41.474</ele>
        <time>2013-05-15T20:48:35Z</time>
      </trkpt>
      <trkpt lat="59.951628" lon="17.7278522">
        <ele>41.9547</ele>
        <time>2013-05-15T20:48:36Z</time>
      </trkpt>
      <trkpt lat="59.9516507" lon="17.7278647">
        <ele>41.474</ele>
        <time>2013-05-15T20:48:37Z</time>
      </trkpt>
      <trkpt lat="59.9516702" lon="17.7278732">
        <ele>41.474</ele>
        <time>2013-05-15T20:48:38Z</time>
      </trkpt>
      <trkpt lat="59.9516886" lon="17.7278804">
        <ele>40.9934</ele>
        <time>2013-05-15T20:48:39Z</time>
      </trkpt>
      <trkpt lat="59.9517098" lon="17.7278878">
        <ele>40.9934</ele>
        <time>2013-05-15T20:48:40Z</time>
      </trkpt>
      <trkpt lat="59.9517308" lon="17.7278875">
        <ele>40.5128</ele>
        <time>2013-05-15T20:48:41Z</time>
      </trkpt>
      <trkpt lat="59.9517529" lon="17.7278819">
        <ele>40.0321</ele>
        <time>2013-05-15T20:48:42Z</time>
      </trkpt>
      <trkpt lat="59.9517756" lon="17.7278762">
        <ele>40.0321</ele>
        <time>2013-05-15T20:48:43Z</time>
      </trkpt>
      <trkpt lat="59.9517963" lon="17.7278747">
        <ele>39.5513</ele>
        <time>2013-05-15T20:48:44Z</time>
      </trkpt>
      <trkpt lat="59.9518156" lon="17.72787">
        <ele>39.0707</ele>
        <time>2013-05-15T20:48:45Z</time>
      </trkpt>
      <trkpt lat="59.9518333" lon="17.7278595">
        <ele>38.1094</ele>
        <time>2013-05-15T20:48:46Z</time>
      </trkpt>
      <trkpt lat="59.9518508" lon="17.7278456">
        <ele>37.6287</ele>
        <time>2013-05-15T20:48:47Z</time>
      </trkpt>
      <trkpt lat="59.9518644" lon="17.7278286">
        <ele>37.1481</ele>
        <time>2013-05-15T20:48:48Z</time>
      </trkpt>
      <trkpt lat="59.95188" lon="17.7278035">
        <ele>36.6675</ele>
        <time>2013-05-15T20:48:49Z</time>
      </trkpt>
      <trkpt lat="59.9519017" lon="17.7277665">
        <ele>37.1481</ele>
        <time>2013-05-15T20:48:50Z</time>
      </trkpt>
      <trkpt lat="59.951916" lon="17.7277267">
        <ele>37.6287</ele>
        <time>2013-05-15T20:48:51Z</time>
      </trkpt>
      <trkpt lat="59.9519253" lon="17.7276892">
        <ele>37.6287</ele>
        <time>2013-05-15T20:48:52Z</time>
      </trkpt>
      <trkpt lat="59.9519326" lon="17.7276457">
        <ele>37.1481</ele>
        <time>2013-05-15T20:48:53Z</time>
      </trkpt>
      <trkpt lat="59.9519398" lon="17.7276015">
        <ele>37.1481</ele>
        <time>2013-05-15T20:48:54Z</time>
      </trkpt>
      <trkpt lat="59.9519481" lon="17.7275561">
        <ele>37.1481</ele>
        <time>2013-05-15T20:48:55Z</time>
      </trkpt>
      <trkpt lat="59.9519536" lon="17.7275088">
        <ele>37.6287</ele>
        <time>2013-05-15T20:48:56Z</time>
      </trkpt>
      <trkpt lat="59.951961" lon="17.7274601">
        <ele>38.1094</ele>
        <time>2013-05-15T20:48:57Z</time>
      </trkpt>
      <trkpt lat="59.951969" lon="17.7274142">
        <ele>38.5901</ele>
        <time>2013-05-15T20:48:58Z</time>
      </trkpt>
      <trkpt lat="59.9519789" lon="17.7273721">
        <ele>39.0707</ele>
        <time>2013-05-15T20:48:59Z</time>
      </trkpt>
      <trkpt lat="59.9519829" lon="17.7273235">
        <ele>39.5513</ele>
        <time>2013-05-15T20:49:00Z</time>
      </trkpt>
      <trkpt lat="59.9519913" lon="17.7272748">
        <ele>40.0321</ele>
        <time>2013-05-15T20:49:01Z</time>
      </trkpt>
      <trkpt lat="59.9520041" lon="17.7272287">
        <ele>40.9934</ele>
        <time>2013-05-15T20:49:02Z</time>
      </trkpt>
      <trkpt lat="59.952011" lon="17.7271899">
        <ele>40.9934</ele>
        <time>2013-05-15T20:49:03Z</time>
      </trkpt>
      <trkpt lat="59.9520225" lon="17.72715">
        <ele>41.474</ele>
        <time>2013-05-15T20:49:04Z</time>
      </trkpt>
      <trkpt lat="59.9520302" lon="17.7271034">
        <ele>41.9547</ele>
        <time>2013-05-15T20:49:05Z</time>
      </trkpt>
      <trkpt lat="59.9520363" lon="17.7270534">
        <ele>41.9547</ele>
        <time>2013-05-15T20:49:06Z</time>
      </trkpt>
      <trkpt lat="59.9520456" lon="17.7270087">
        <ele>41.9547</ele>
        <time>2013-05-15T20:49:07Z</time>
      </trkpt>
      <trkpt lat="59.9520548" lon="17.7269656">
        <ele>41.9547</ele>
        <time>2013-05-15T20:49:08Z</time>
      </trkpt>
      <trkpt lat="59.9520618" lon="17.7269235">
        <ele>41.9547</ele>
        <time>2013-05-15T20:49:09Z</time>
      </trkpt>
      <trkpt lat="59.9520715" lon="17.7268776">
        <ele>42.4354</ele>
        <time>2013-05-15T20:49:10Z</time>
      </trkpt>
      <trkpt lat="59.9520792" lon="17.7268345">
        <ele>42.4354</ele>
        <time>2013-05-15T20:49:11Z</time>
      </trkpt>
      <trkpt lat="59.9520891" lon="17.7267877">
        <ele>42.916</ele>
        <time>2013-05-15T20:49:12Z</time>
      </trkpt>
      <trkpt lat="59.9520984" lon="17.7267408">
        <ele>42.916</ele>
        <time>2013-05-15T20:49:13Z</time>
      </trkpt>
      <trkpt lat="59.9521083" lon="17.7266973">
        <ele>42.916</ele>
        <time>2013-05-15T20:49:14Z</time>
      </trkpt>
      <trkpt lat="59.9521193" lon="17.7266608">
        <ele>43.3966</ele>
        <time>2013-05-15T20:49:15Z</time>
      </trkpt>
      <trkpt lat="59.9521353" lon="17.7266217">
        <ele>43.3966</ele>
        <time>2013-05-15T20:49:16Z</time>
      </trkpt>
      <trkpt lat="59.9521496" lon="17.7265862">
        <ele>43.3966</ele>
        <time>2013-05-15T20:49:17Z</time>
      </trkpt>
      <trkpt lat="59.9521622" lon="17.7265491">
        <ele>43.8773</ele>
        <time>2013-05-15T20:49:18Z</time>
      </trkpt>
      <trkpt lat="59.9521757" lon="17.7265108">
        <ele>43.8773</ele>
        <time>2013-05-15T20:49:19Z</time>
      </trkpt>
      <trkpt lat="59.9521881" lon="17.7264762">
        <ele>43.3966</ele>
        <time>2013-05-15T20:49:20Z</time>
      </trkpt>
      <trkpt lat="59.9522026" lon="17.7264388">
        <ele>43.8773</ele>
        <time>2013-05-15T20:49:21Z</time>
      </trkpt>
      <trkpt lat="59.9522139" lon="17.7264035">
        <ele>44.358</ele>
        <time>2013-05-15T20:49:22Z</time>
      </trkpt>
      <trkpt lat="59.952228" lon="17.7263693">
        <ele>44.358</ele>
        <time>2013-05-15T20:49:23Z</time>
      </trkpt>
      <trkpt lat="59.9522441" lon="17.726334">
        <ele>44.358</ele>
        <time>2013-05-15T20:49:24Z</time>
      </trkpt>
      <trkpt lat="59.9522601" lon="17.7263026">
        <ele>44.358</ele>
        <time>2013-05-15T20:49:25Z</time>
      </trkpt>
      <trkpt lat="59.9522788" lon="17.7262756">
        <ele>44.358</ele>
        <time>2013-05-15T20:49:26Z</time>
      </trkpt>
      <trkpt lat="59.9522967" lon="17.7262483">
        <ele>44.358</ele>
        <time>2013-05-15T20:49:27Z</time>
      </trkpt>
      <trkpt lat="59.9523136" lon="17.7262166">
        <ele>43.8773</ele>
        <time>2013-05-15T20:49:28Z</time>
      </trkpt>
      <trkpt lat="59.952328" lon="17.7261889">
        <ele>43.3966</ele>
        <time>2013-05-15T20:49:29Z</time>
      </trkpt>
      <trkpt lat="59.952342" lon="17.726158">
        <ele>42.916</ele>
        <time>2013-05-15T20:49:30Z</time>
      </trkpt>
      <trkpt lat="59.9523606" lon="17.7261316">
        <ele>41.9547</ele>
        <time>2013-05-15T20:49:31Z</time>
      </trkpt>
      <trkpt lat="59.9523792" lon="17.7261081">
        <ele>41.9547</ele>
        <time>2013-05-15T20:49:32Z</time>
      </trkpt>
      <trkpt lat="59.9523972" lon="17.7260782">
        <ele>41.9547</ele>
        <time>2013-05-15T20:49:33Z</time>
      </trkpt>
      <trkpt lat="59.9524159" lon="17.7260423">
        <ele>41.9547</ele>
        <time>2013-05-15T20:49:34Z</time>
      </trkpt>
      <trkpt lat="59.9524389" lon="17.7260046">
        <ele>42.4354</ele>
        <time>2013-05-15T20:49:35Z</time>
      </trkpt>
      <trkpt lat="59.9524584" lon="17.7259761">
        <ele>41.9547</ele>
        <time>2013-05-15T20:49:36Z</time>
      </trkpt>
      <trkpt lat="59.9524739" lon="17.7259441">
        <ele>42.4354</ele>
        <time>2013-05-15T20:49:37Z</time>
      </trkpt>
      <trkpt lat="59.952487" lon="17.7259067">
        <ele>42.4354</ele>
        <time>2013-05-15T20:49:38Z</time>
      </trkpt>
      <trkpt lat="59.9524992" lon="17.7258715">
        <ele>42.4354</ele>
        <time>2013-05-15T20:49:39Z</time>
      </trkpt>
      <trkpt lat="59.9525139" lon="17.7258392">
        <ele>42.4354</ele>
        <time>2013-05-15T20:49:40Z</time>
      </trkpt>
      <trkpt lat="59.9525284" lon="17.7258124">
        <ele>42.4354</ele>
        <time>2013-05-15T20:49:41Z</time>
      </trkpt>
      <trkpt lat="59.9525443" lon="17.7257892">
        <ele>41.9547</ele>
        <time>2013-05-15T20:49:42Z</time>
      </trkpt>
      <trkpt lat="59.9525611" lon="17.7257616">
        <ele>41.9547</ele>
        <time>2013-05-15T20:49:43Z</time>
      </trkpt>
      <trkpt lat="59.9525786" lon="17.7257305">
        <ele>41.9547</ele>
        <time>2013-05-15T20:49:44Z</time>
      </trkpt>
      <trkpt lat="59.9525959" lon="17.7256955">
        <ele>41.9547</ele>
        <time>2013-05-15T20:49:45Z</time>
      </trkpt>
      <trkpt lat="59.952617" lon="17.7256579">
        <ele>41.9547</ele>
        <time>2013-05-15T20:49:46Z</time>
      </trkpt>
      <trkpt lat="59.9526336" lon="17.7256306">
        <ele>41.9547</ele>
        <time>2013-05-15T20:49:47Z</time>
      </trkpt>
      <trkpt lat="59.9526482" lon="17.7256044">
        <ele>41.474</ele>
        <time>2013-05-15T20:49:48Z</time>
      </trkpt>
      <trkpt lat="59.9526642" lon="17.7255758">
        <ele>40.9934</ele>
        <time>2013-05-15T20:49:49Z</time>
      </trkpt>
      <trkpt lat="59.9526833" lon="17.7255462">
        <ele>41.474</ele>
        <time>2013-05-15T20:49:50Z</time>
      </trkpt>
      <trkpt lat="59.9527019" lon="17.7255167">
        <ele>41.474</ele>
        <time>2013-05-15T20:49:51Z</time>
      </trkpt>
      <trkpt lat="59.952717" lon="17.7254901">
        <ele>40.9934</ele>
        <time>2013-05-15T20:49:52Z</time>
      </trkpt>
      <trkpt lat="59.9527331" lon="17.7254644">
        <ele>40.9934</ele>
        <time>2013-05-15T20:49:53Z</time>
      </trkpt>
      <trkpt lat="59.9527495" lon="17.7254393">
        <ele>40.9934</ele>
        <time>2013-05-15T20:49:54Z</time>
      </trkpt>
      <trkpt lat="59.952767" lon="17.7254137">
        <ele>40.9934</ele>
        <time>2013-05-15T20:49:55Z</time>
      </trkpt>
      <trkpt lat="59.9527857" lon="17.7253909">
        <ele>40.9934</ele>
        <time>2013-05-15T20:49:56Z</time>
      </trkpt>
      <trkpt lat="59.9528056" lon="17.7253653">
        <ele>40.9934</ele>
        <time>2013-05-15T20:49:57Z</time>
      </trkpt>
      <trkpt lat="59.9528216" lon="17.7253417">
        <ele>40.9934</ele>
        <time>2013-05-15T20:49:58Z</time>
      </trkpt>
      <trkpt lat="59.9528349" lon="17.7253148">
        <ele>40.5128</ele>
        <time>2013-05-15T20:49:59Z</time>
      </trkpt>
      <trkpt lat="59.9528478" lon="17.725286">
        <ele>40.5128</ele>
        <time>2013-05-15T20:50:00Z</time>
      </trkpt>
      <trkpt lat="59.9528613" lon="17.7252577">
        <ele>40.5128</ele>
        <time>2013-05-15T20:50:01Z</time>
      </trkpt>
      <trkpt lat="59.9528771" lon="17.7252262">
        <ele>40.5128</ele>
        <time>2013-05-15T20:50:02Z</time>
      </trkpt>
      <trkpt lat="59.9528932" lon="17.7251904">
        <ele>40.9934</ele>
        <time>2013-05-15T20:50:03Z</time>
      </trkpt>
      <trkpt lat="59.9529092" lon="17.725154">
        <ele>40.9934</ele>
        <time>2013-05-15T20:50:04Z</time>
      </trkpt>
      <trkpt lat="59.9529243" lon="17.7251256">
        <ele>40.9934</ele>
        <time>2013-05-15T20:50:05Z</time>
      </trkpt>
      <trkpt lat="59.9529426" lon="17.7251018">
        <ele>41.474</ele>
        <time>2013-05-15T20:50:06Z</time>
      </trkpt>
      <trkpt lat="59.9529592" lon="17.725079">
        <ele>41.474</ele>
        <time>2013-05-15T20:50:07Z</time>
      </trkpt>
      <trkpt lat="59.9529739" lon="17.725057">
        <ele>41.9547</ele>
        <time>2013-05-15T20:50:08Z</time>
      </trkpt>
      <trkpt lat="59.9529887" lon="17.7250453">
        <ele>41.9547</ele>
        <time>2013-05-15T20:50:09Z</time>
      </trkpt>
      <trkpt lat="59.9530066" lon="17.7250319">
        <ele>41.9547</ele>
        <time>2013-05-15T20:50:10Z</time>
      </trkpt>
      <trkpt lat="59.9530267" lon="17.7250011">
        <ele>41.9547</ele>
        <time>2013-05-15T20:50:11Z</time>
      </trkpt>
      <trkpt lat="59.9530449" lon="17.7249639">
        <ele>40.9934</ele>
        <time>2013-05-15T20:50:12Z</time>
      </trkpt>
      <trkpt lat="59.9530656" lon="17.7249277">
        <ele>41.474</ele>
        <time>2013-05-15T20:50:13Z</time>
      </trkpt>
      <trkpt lat="59.9530807" lon="17.7248994">
        <ele>40.9934</ele>
        <time>2013-05-15T20:50:14Z</time>
      </trkpt>
      <trkpt lat="59.9531014" lon="17.7248614">
        <ele>41.474</ele>
        <time>2013-05-15T20:50:15Z</time>
      </trkpt>
      <trkpt lat="59.9531219" lon="17.7248291">
        <ele>41.474</ele>
        <time>2013-05-15T20:50:16Z</time>
      </trkpt>
      <trkpt lat="59.9531402" lon="17.7247975">
        <ele>41.474</ele>
        <time>2013-05-15T20:50:17Z</time>
      </trkpt>
      <trkpt lat="59.9531582" lon="17.7247594">
        <ele>41.9547</ele>
        <time>2013-05-15T20:50:18Z</time>
      </trkpt>
      <trkpt lat="59.9531774" lon="17.7247206">
        <ele>42.4354</ele>
        <time>2013-05-15T20:50:19Z</time>
      </trkpt>
      <trkpt lat="59.9531946" lon="17.7246774">
        <ele>42.4354</ele>
        <time>2013-05-15T20:50:20Z</time>
      </trkpt>
      <trkpt lat="59.9532112" lon="17.7246338">
        <ele>42.916</ele>
        <time>2013-05-15T20:50:21Z</time>
      </trkpt>
      <trkpt lat="59.9532275" lon="17.7245914">
        <ele>43.8773</ele>
        <time>2013-05-15T20:50:22Z</time>
      </trkpt>
      <trkpt lat="59.9532431" lon="17.7245517">
        <ele>44.358</ele>
        <time>2013-05-15T20:50:23Z</time>
      </trkpt>
      <trkpt lat="59.9532613" lon="17.7245102">
        <ele>44.8386</ele>
        <time>2013-05-15T20:50:24Z</time>
      </trkpt>
      <trkpt lat="59.9532789" lon="17.7244717">
        <ele>45.3192</ele>
        <time>2013-05-15T20:50:25Z</time>
      </trkpt>
      <trkpt lat="59.9532925" lon="17.7244314">
        <ele>45.7999</ele>
        <time>2013-05-15T20:50:26Z</time>
      </trkpt>
      <trkpt lat="59.9533065" lon="17.7243938">
        <ele>45.7999</ele>
        <time>2013-05-15T20:50:27Z</time>
      </trkpt>
      <trkpt lat="59.9533185" lon="17.7243677">
        <ele>46.2806</ele>
        <time>2013-05-15T20:50:28Z</time>
      </trkpt>
      <trkpt lat="59.9533276" lon="17.7243389">
        <ele>47.7225</ele>
        <time>2013-05-15T20:50:29Z</time>
      </trkpt>
      <trkpt lat="59.9533402" lon="17.724319">
        <ele>48.2034</ele>
        <time>2013-05-15T20:50:30Z</time>
      </trkpt>
      <trkpt lat="59.953353" lon="17.7242963">
        <ele>49.1646</ele>
        <time>2013-05-15T20:50:31Z</time>
      </trkpt>
      <trkpt lat="59.9533701" lon="17.7242679">
        <ele>50.126</ele>
        <time>2013-05-15T20:50:32Z</time>
      </trkpt>
      <trkpt lat="59.953382" lon="17.7242332">
        <ele>51.0872</ele>
        <time>2013-05-15T20:50:33Z</time>
      </trkpt>
      <trkpt lat="59.9534024" lon="17.7241969">
        <ele>51.0872</ele>
        <time>2013-05-15T20:50:34Z</time>
      </trkpt>
      <trkpt lat="59.9534247" lon="17.724162">
        <ele>51.5679</ele>
        <time>2013-05-15T20:50:35Z</time>
      </trkpt>
      <trkpt lat="59.9534428" lon="17.7241273">
        <ele>51.5679</ele>
        <time>2013-05-15T20:50:36Z</time>
      </trkpt>
      <trkpt lat="59.9534627" lon="17.7240956">
        <ele>52.5292</ele>
        <time>2013-05-15T20:50:37Z</time>
      </trkpt>
      <trkpt lat="59.9534819" lon="17.7240636">
        <ele>53.0098</ele>
        <time>2013-05-15T20:50:38Z</time>
      </trkpt>
      <trkpt lat="59.9534983" lon="17.7240221">
        <ele>52.5292</ele>
        <time>2013-05-15T20:50:39Z</time>
      </trkpt>
      <trkpt lat="59.9535173" lon="17.7239844">
        <ele>52.5292</ele>
        <time>2013-05-15T20:50:40Z</time>
      </trkpt>
      <trkpt lat="59.953536" lon="17.7239539">
        <ele>52.0486</ele>
        <time>2013-05-15T20:50:41Z</time>
      </trkpt>
      <trkpt lat="59.9535556" lon="17.7239238">
        <ele>51.0872</ele>
        <time>2013-05-15T20:50:42Z</time>
      </trkpt>
      <trkpt lat="59.9535795" lon="17.7238871">
        <ele>51.5679</ele>
        <time>2013-05-15T20:50:43Z</time>
      </trkpt>
      <trkpt lat="59.9536041" lon="17.723842">
        <ele>52.5292</ele>
        <time>2013-05-15T20:50:44Z</time>
      </trkpt>
      <trkpt lat="59.9536298" lon="17.7238053">
        <ele>52.5292</ele>
        <time>2013-05-15T20:50:45Z</time>
      </trkpt>
      <trkpt lat="59.9536528" lon="17.7237737">
        <ele>52.5292</ele>
        <time>2013-05-15T20:50:46Z</time>
      </trkpt>
      <trkpt lat="59.9536747" lon="17.7237358">
        <ele>52.5292</ele>
        <time>2013-05-15T20:50:47Z</time>
      </trkpt>
      <trkpt lat="59.9536944" lon="17.7236989">
        <ele>52.0486</ele>
        <time>2013-05-15T20:50:48Z</time>
      </trkpt>
      <trkpt lat="59.9537146" lon="17.7236685">
        <ele>52.5292</ele>
        <time>2013-05-15T20:50:49Z</time>
      </trkpt>
      <trkpt lat="59.9537348" lon="17.723641">
        <ele>52.5292</ele>
        <time>2013-05-15T20:50:50Z</time>
      </trkpt>
      <trkpt lat="59.9537566" lon="17.7236089">
        <ele>52.0486</ele>
        <time>2013-05-15T20:50:51Z</time>
      </trkpt>
      <trkpt lat="59.9537728" lon="17.7235819">
        <ele>51.5679</ele>
        <time>2013-05-15T20:50:52Z</time>
      </trkpt>
      <trkpt lat="59.9537882" lon="17.7235617">
        <ele>51.5679</ele>
        <time>2013-05-15T20:50:53Z</time>
      </trkpt>
      <trkpt lat="59.9538011" lon="17.7235475">
        <ele>51.5679</ele>
        <time>2013-05-15T20:50:54Z</time>
      </trkpt>
      <trkpt lat="59.9538134" lon="17.7235296">
        <ele>51.0872</ele>
        <time>2013-05-15T20:50:55Z</time>
      </trkpt>
      <trkpt lat="59.9538269" lon="17.7235131">
        <ele>50.6066</ele>
        <time>2013-05-15T20:50:56Z</time>
      </trkpt>
      <trkpt lat="59.9538401" lon="17.7234881">
        <ele>50.126</ele>
        <time>2013-05-15T20:50:57Z</time>
      </trkpt>
      <trkpt lat="59.9538566" lon="17.7234663">
        <ele>50.6066</ele>
        <time>2013-05-15T20:50:58Z</time>
      </trkpt>
      <trkpt lat="59.9538722" lon="17.7234479">
        <ele>49.6453</ele>
        <time>2013-05-15T20:50:59Z</time>
      </trkpt>
      <trkpt lat="59.9538916" lon="17.7234269">
        <ele>49.6453</ele>
        <time>2013-05-15T20:51:00Z</time>
      </trkpt>
      <trkpt lat="59.9539089" lon="17.7234008">
        <ele>49.1646</ele>
        <time>2013-05-15T20:51:01Z</time>
      </trkpt>
      <trkpt lat="59.9539266" lon="17.7233742">
        <ele>49.1646</ele>
        <time>2013-05-15T20:51:02Z</time>
      </trkpt>
      <trkpt lat="59.9539468" lon="17.7233499">
        <ele>49.1646</ele>
        <time>2013-05-15T20:51:03Z</time>
      </trkpt>
      <trkpt lat="59.9539633" lon="17.723336">
        <ele>48.684</ele>
        <time>2013-05-15T20:51:04Z</time>
      </trkpt>
      <trkpt lat="59.9539815" lon="17.7233271">
        <ele>48.684</ele>
        <time>2013-05-15T20:51:05Z</time>
      </trkpt>
      <trkpt lat="59.953999" lon="17.7233173">
        <ele>48.2034</ele>
        <time>2013-05-15T20:51:06Z</time>
      </trkpt>
      <trkpt lat="59.9540161" lon="17.7232961">
        <ele>47.7225</ele>
        <time>2013-05-15T20:51:07Z</time>
      </trkpt>
      <trkpt lat="59.9540368" lon="17.7232849">
        <ele>47.7225</ele>
        <time>2013-05-15T20:51:08Z</time>
      </trkpt>
      <trkpt lat="59.9540553" lon="17.7232695">
        <ele>47.2418</ele>
        <time>2013-05-15T20:51:09Z</time>
      </trkpt>
      <trkpt lat="59.9540777" lon="17.7232566">
        <ele>47.2418</ele>
        <time>2013-05-15T20:51:10Z</time>
      </trkpt>
      <trkpt lat="59.9541022" lon="17.7232577">
        <ele>47.7225</ele>
        <time>2013-05-15T20:51:11Z</time>
      </trkpt>
      <trkpt lat="59.9541213" lon="17.7232645">
        <ele>47.2418</ele>
        <time>2013-05-15T20:51:12Z</time>
      </trkpt>
      <trkpt lat="59.954141" lon="17.7232611">
        <ele>46.7612</ele>
        <time>2013-05-15T20:51:13Z</time>
      </trkpt>
      <trkpt lat="59.9541602" lon="17.7232747">
        <ele>46.2806</ele>
        <time>2013-05-15T20:51:14Z</time>
      </trkpt>
      <trkpt lat="59.9541793" lon="17.7232811">
        <ele>46.2806</ele>
        <time>2013-05-15T20:51:15Z</time>
      </trkpt>
      <trkpt lat="59.9542011" lon="17.7232955">
        <ele>46.2806</ele>
        <time>2013-05-15T20:51:16Z</time>
      </trkpt>
      <trkpt lat="59.9542209" lon="17.7233127">
        <ele>45.3192</ele>
        <time>2013-05-15T20:51:17Z</time>
      </trkpt>
      <trkpt lat="59.9542444" lon="17.7233412">
        <ele>44.358</ele>
        <time>2013-05-15T20:51:18Z</time>
      </trkpt>
      <trkpt lat="59.9542644" lon="17.7233644">
        <ele>44.358</ele>
        <time>2013-05-15T20:51:19Z</time>
      </trkpt>
      <trkpt lat="59.9542838" lon="17.7233811">
        <ele>43.8773</ele>
        <time>2013-05-15T20:51:20Z</time>
      </trkpt>
      <trkpt lat="59.9543042" lon="17.7233913">
        <ele>43.8773</ele>
        <time>2013-05-15T20:51:21Z</time>
      </trkpt>
      <trkpt lat="59.9543264" lon="17.7233991">
        <ele>43.8773</ele>
        <time>2013-05-15T20:51:22Z</time>
      </trkpt>
      <trkpt lat="59.9543569" lon="17.7234144">
        <ele>44.358</ele>
        <time>2013-05-15T20:51:23Z</time>
      </trkpt>
      <trkpt lat="59.9543835" lon="17.7234289">
        <ele>44.358</ele>
        <time>2013-05-15T20:51:24Z</time>
      </trkpt>
      <trkpt lat="59.9544135" lon="17.7234343">
        <ele>45.3192</ele>
        <time>2013-05-15T20:51:25Z</time>
      </trkpt>
      <trkpt lat="59.9544394" lon="17.7234378">
        <ele>45.7999</ele>
        <time>2013-05-15T20:51:26Z</time>
      </trkpt>
      <trkpt lat="59.9544679" lon="17.7234419">
        <ele>46.7612</ele>
        <time>2013-05-15T20:51:27Z</time>
      </trkpt>
      <trkpt lat="59.9544933" lon="17.723453">
        <ele>46.7612</ele>
        <time>2013-05-15T20:51:28Z</time>
      </trkpt>
      <trkpt lat="59.9545182" lon="17.7234632">
        <ele>46.7612</ele>
        <time>2013-05-15T20:51:29Z</time>
      </trkpt>
      <trkpt lat="59.9545402" lon="17.7234793">
        <ele>46.7612</ele>
        <time>2013-05-15T20:51:30Z</time>
      </trkpt>
      <trkpt lat="59.9545658" lon="17.7234815">
        <ele>46.7612</ele>
        <time>2013-05-15T20:51:31Z</time>
      </trkpt>
      <trkpt lat="59.9545885" lon="17.7234909">
        <ele>46.7612</ele>
        <time>2013-05-15T20:51:32Z</time>
      </trkpt>
      <trkpt lat="59.9546103" lon="17.7235092">
        <ele>46.7612</ele>
        <time>2013-05-15T20:51:33Z</time>
      </trkpt>
      <trkpt lat="59.9546339" lon="17.7235307">
        <ele>47.2418</ele>
        <time>2013-05-15T20:51:34Z</time>
      </trkpt>
      <trkpt lat="59.9546559" lon="17.7235388">
        <ele>47.2418</ele>
        <time>2013-05-15T20:51:35Z</time>
      </trkpt>
      <trkpt lat="59.9546786" lon="17.7235431">
        <ele>47.7225</ele>
        <time>2013-05-15T20:51:36Z</time>
      </trkpt>
      <trkpt lat="59.9546985" lon="17.7235462">
        <ele>47.7225</ele>
        <time>2013-05-15T20:51:37Z</time>
      </trkpt>
      <trkpt lat="59.9547252" lon="17.7235539">
        <ele>47.7225</ele>
        <time>2013-05-15T20:51:38Z</time>
      </trkpt>
      <trkpt lat="59.9547542" lon="17.7235639">
        <ele>48.684</ele>
        <time>2013-05-15T20:51:39Z</time>
      </trkpt>
      <trkpt lat="59.95478" lon="17.7235737">
        <ele>49.1646</ele>
        <time>2013-05-15T20:51:40Z</time>
      </trkpt>
      <trkpt lat="59.9548018" lon="17.72358">
        <ele>49.1646</ele>
        <time>2013-05-15T20:51:41Z</time>
      </trkpt>
      <trkpt lat="59.9548231" lon="17.7235865">
        <ele>48.684</ele>
        <time>2013-05-15T20:51:42Z</time>
      </trkpt>
      <trkpt lat="59.9548444" lon="17.7235954">
        <ele>48.2034</ele>
        <time>2013-05-15T20:51:43Z</time>
      </trkpt>
      <trkpt lat="59.9548662" lon="17.7236092">
        <ele>48.2034</ele>
        <time>2013-05-15T20:51:44Z</time>
      </trkpt>
      <trkpt lat="59.9548869" lon="17.7236078">
        <ele>47.7225</ele>
        <time>2013-05-15T20:51:45Z</time>
      </trkpt>
      <trkpt lat="59.9549065" lon="17.7236078">
        <ele>47.7225</ele>
        <time>2013-05-15T20:51:46Z</time>
      </trkpt>
      <trkpt lat="59.9549288" lon="17.7236058">
        <ele>48.2034</ele>
        <time>2013-05-15T20:51:47Z</time>
      </trkpt>
      <trkpt lat="59.9549501" lon="17.7235975">
        <ele>48.684</ele>
        <time>2013-05-15T20:51:48Z</time>
      </trkpt>
      <trkpt lat="59.9549678" lon="17.7235886">
        <ele>48.2034</ele>
        <time>2013-05-15T20:51:49Z</time>
      </trkpt>
      <trkpt lat="59.9549833" lon="17.7235943">
        <ele>47.7225</ele>
        <time>2013-05-15T20:51:50Z</time>
      </trkpt>
      <trkpt lat="59.9549983" lon="17.7236066">
        <ele>47.2418</ele>
        <time>2013-05-15T20:51:51Z</time>
      </trkpt>
      <trkpt lat="59.9550227" lon="17.7235989">
        <ele>47.2418</ele>
        <time>2013-05-15T20:51:52Z</time>
      </trkpt>
      <trkpt lat="59.9550423" lon="17.7235828">
        <ele>47.2418</ele>
        <time>2013-05-15T20:51:53Z</time>
      </trkpt>
      <trkpt lat="59.9550613" lon="17.7235717">
        <ele>47.2418</ele>
        <time>2013-05-15T20:51:54Z</time>
      </trkpt>
      <trkpt lat="59.9550779" lon="17.7235532">
        <ele>47.2418</ele>
        <time>2013-05-15T20:51:55Z</time>
      </trkpt>
      <trkpt lat="59.9550987" lon="17.7235308">
        <ele>47.2418</ele>
        <time>2013-05-15T20:51:56Z</time>
      </trkpt>
      <trkpt lat="59.9551237" lon="17.7235066">
        <ele>48.2034</ele>
        <time>2013-05-15T20:51:57Z</time>
      </trkpt>
      <trkpt lat="59.9551468" lon="17.723486">
        <ele>48.2034</ele>
        <time>2013-05-15T20:51:58Z</time>
      </trkpt>
      <trkpt lat="59.9551754" lon="17.723456">
        <ele>48.684</ele>
        <time>2013-05-15T20:51:59Z</time>
      </trkpt>
      <trkpt lat="59.9552003" lon="17.7234416">
        <ele>48.2034</ele>
        <time>2013-05-15T20:52:00Z</time>
      </trkpt>
      <trkpt lat="59.955218" lon="17.7234291">
        <ele>47.7225</ele>
        <time>2013-05-15T20:52:01Z</time>
      </trkpt>
      <trkpt lat="59.9552422" lon="17.7234022">
        <ele>48.2034</ele>
        <time>2013-05-15T20:52:02Z</time>
      </trkpt>
      <trkpt lat="59.9552624" lon="17.7233928">
        <ele>48.684</ele>
        <time>2013-05-15T20:52:03Z</time>
      </trkpt>
      <trkpt lat="59.9552796" lon="17.7233887">
        <ele>48.2034</ele>
        <time>2013-05-15T20:52:04Z</time>
      </trkpt>
      <trkpt lat="59.9552998" lon="17.7233846">
        <ele>48.684</ele>
        <time>2013-05-15T20:52:05Z</time>
      </trkpt>
      <trkpt lat="59.9553232" lon="17.7233856">
        <ele>48.2034</ele>
        <time>2013-05-15T20:52:06Z</time>
      </trkpt>
      <trkpt lat="59.9553455" lon="17.7233882">
        <ele>48.2034</ele>
        <time>2013-05-15T20:52:07Z</time>
      </trkpt>
      <trkpt lat="59.9553692" lon="17.7233908">
        <ele>47.7225</ele>
        <time>2013-05-15T20:52:08Z</time>
      </trkpt>
      <trkpt lat="59.9553925" lon="17.7234001">
        <ele>47.7225</ele>
        <time>2013-05-15T20:52:09Z</time>
      </trkpt>
      <trkpt lat="59.9554147" lon="17.7234072">
        <ele>47.2418</ele>
        <time>2013-05-15T20:52:10Z</time>
      </trkpt>
      <trkpt lat="59.9554345" lon="17.7234291">
        <ele>46.7612</ele>
        <time>2013-05-15T20:52:11Z</time>
      </trkpt>
      <trkpt lat="59.955453" lon="17.7234469">
        <ele>46.7612</ele>
        <time>2013-05-15T20:52:12Z</time>
      </trkpt>
      <trkpt lat="59.9554697" lon="17.7234707">
        <ele>46.7612</ele>
        <time>2013-05-15T20:52:13Z</time>
      </trkpt>
      <trkpt lat="59.9554903" lon="17.7234928">
        <ele>46.2806</ele>
        <time>2013-05-15T20:52:14Z</time>
      </trkpt>
      <trkpt lat="59.9555241" lon="17.7235124">
        <ele>47.2418</ele>
        <time>2013-05-15T20:52:15Z</time>
      </trkpt>
      <trkpt lat="59.9555508" lon="17.7235315">
        <ele>47.7225</ele>
        <time>2013-05-15T20:52:16Z</time>
      </trkpt>
      <trkpt lat="59.9555715" lon="17.7235436">
        <ele>47.7225</ele>
        <time>2013-05-15T20:52:17Z</time>
      </trkpt>
      <trkpt lat="59.9555929" lon="17.7235595">
        <ele>47.2418</ele>
        <time>2013-05-15T20:52:18Z</time>
      </trkpt>
      <trkpt lat="59.9556215" lon="17.7235743">
        <ele>47.7225</ele>
        <time>2013-05-15T20:52:19Z</time>
      </trkpt>
      <trkpt lat="59.9556521" lon="17.723594">
        <ele>47.7225</ele>
        <time>2013-05-15T20:52:20Z</time>
      </trkpt>
      <trkpt lat="59.9556825" lon="17.7236172">
        <ele>47.7225</ele>
        <time>2013-05-15T20:52:21Z</time>
      </trkpt>
      <trkpt lat="59.9557038" lon="17.7236291">
        <ele>47.7225</ele>
        <time>2013-05-15T20:52:22Z</time>
      </trkpt>
      <trkpt lat="59.9557262" lon="17.7236432">
        <ele>47.2418</ele>
        <time>2013-05-15T20:52:23Z</time>
      </trkpt>
      <trkpt lat="59.9557499" lon="17.7236649">
        <ele>47.2418</ele>
        <time>2013-05-15T20:52:24Z</time>
      </trkpt>
      <trkpt lat="59.9557674" lon="17.7236865">
        <ele>46.7612</ele>
        <time>2013-05-15T20:52:25Z</time>
      </trkpt>
      <trkpt lat="59.9557872" lon="17.7237057">
        <ele>46.2806</ele>
        <time>2013-05-15T20:52:26Z</time>
      </trkpt>
      <trkpt lat="59.9558074" lon="17.7237084">
        <ele>45.7999</ele>
        <time>2013-05-15T20:52:27Z</time>
      </trkpt>
      <trkpt lat="59.9558256" lon="17.7236976">
        <ele>45.3192</ele>
        <time>2013-05-15T20:52:28Z</time>
      </trkpt>
      <trkpt lat="59.9558447" lon="17.7236777">
        <ele>44.8386</ele>
        <time>2013-05-15T20:52:29Z</time>
      </trkpt>
      <trkpt lat="59.9558586" lon="17.7236465">
        <ele>44.8386</ele>
        <time>2013-05-15T20:52:30Z</time>
      </trkpt>
      <trkpt lat="59.9558773" lon="17.723612">
        <ele>45.7999</ele>
        <time>2013-05-15T20:52:31Z</time>
      </trkpt>
      <trkpt lat="59.9558902" lon="17.7235709">
        <ele>46.2806</ele>
        <time>2013-05-15T20:52:32Z</time>
      </trkpt>
      <trkpt lat="59.9559079" lon="17.7235312">
        <ele>46.2806</ele>
        <time>2013-05-15T20:52:33Z</time>
      </trkpt>
      <trkpt lat="59.9559224" lon="17.7234873">
        <ele>47.2418</ele>
        <time>2013-05-15T20:52:34Z</time>
      </trkpt>
      <trkpt lat="59.9559389" lon="17.7234462">
        <ele>48.2034</ele>
        <time>2013-05-15T20:52:35Z</time>
      </trkpt>
      <trkpt lat="59.9559547" lon="17.7234101">
        <ele>48.2034</ele>
        <time>2013-05-15T20:52:36Z</time>
      </trkpt>
      <trkpt lat="59.9559691" lon="17.7233696">
        <ele>49.1646</ele>
        <time>2013-05-15T20:52:37Z</time>
      </trkpt>
      <trkpt lat="59.9559846" lon="17.7233095">
        <ele>50.6066</ele>
        <time>2013-05-15T20:52:38Z</time>
      </trkpt>
      <trkpt lat="59.9560013" lon="17.7232567">
        <ele>51.5679</ele>
        <time>2013-05-15T20:52:39Z</time>
      </trkpt>
      <trkpt lat="59.9560111" lon="17.7232114">
        <ele>52.0486</ele>
        <time>2013-05-15T20:52:40Z</time>
      </trkpt>
      <trkpt lat="59.9560151" lon="17.7231656">
        <ele>51.0872</ele>
        <time>2013-05-15T20:52:41Z</time>
      </trkpt>
      <trkpt lat="59.9560308" lon="17.7231027">
        <ele>53.0098</ele>
        <time>2013-05-15T20:52:42Z</time>
      </trkpt>
      <trkpt lat="59.956039" lon="17.7230477">
        <ele>53.9712</ele>
        <time>2013-05-15T20:52:43Z</time>
      </trkpt>
      <trkpt lat="59.9560424" lon="17.7229996">
        <ele>54.4518</ele>
        <time>2013-05-15T20:52:44Z</time>
      </trkpt>
      <trkpt lat="59.9560396" lon="17.7229614">
        <ele>54.9324</ele>
        <time>2013-05-15T20:52:45Z</time>
      </trkpt>
      <trkpt lat="59.9560307" lon="17.7229283">
        <ele>54.9324</ele>
        <time>2013-05-15T20:52:46Z</time>
      </trkpt>
      <trkpt lat="59.9560233" lon="17.7228878">
        <ele>54.4518</ele>
        <time>2013-05-15T20:52:47Z</time>
      </trkpt>
      <trkpt lat="59.9560166" lon="17.7228422">
        <ele>54.4518</ele>
        <time>2013-05-15T20:52:48Z</time>
      </trkpt>
      <trkpt lat="59.9560157" lon="17.7227977">
        <ele>54.4518</ele>
        <time>2013-05-15T20:52:49Z</time>
      </trkpt>
      <trkpt lat="59.9560153" lon="17.7227536">
        <ele>55.4131</ele>
        <time>2013-05-15T20:52:50Z</time>
      </trkpt>
      <trkpt lat="59.9560064" lon="17.7227027">
        <ele>55.4131</ele>
        <time>2013-05-15T20:52:51Z</time>
      </trkpt>
      <trkpt lat="59.9559971" lon="17.7226604">
        <ele>55.4131</ele>
        <time>2013-05-15T20:52:52Z</time>
      </trkpt>
      <trkpt lat="59.9559882" lon="17.72261">
        <ele>55.4131</ele>
        <time>2013-05-15T20:52:53Z</time>
      </trkpt>
      <trkpt lat="59.9559788" lon="17.722563">
        <ele>55.4131</ele>
        <time>2013-05-15T20:52:54Z</time>
      </trkpt>
      <trkpt lat="59.9559715" lon="17.7225159">
        <ele>55.4131</ele>
        <time>2013-05-15T20:52:55Z</time>
      </trkpt>
      <trkpt lat="59.9559644" lon="17.7224718">
        <ele>55.8938</ele>
        <time>2013-05-15T20:52:56Z</time>
      </trkpt>
      <trkpt lat="59.9559536" lon="17.7224294">
        <ele>55.8938</ele>
        <time>2013-05-15T20:52:57Z</time>
      </trkpt>
      <trkpt lat="59.9559447" lon="17.7223895">
        <ele>55.8938</ele>
        <time>2013-05-15T20:52:58Z</time>
      </trkpt>
      <trkpt lat="59.9559394" lon="17.7223527">
        <ele>55.8938</ele>
        <time>2013-05-15T20:52:59Z</time>
      </trkpt>
      <trkpt lat="59.9559333" lon="17.7223076">
        <ele>56.3745</ele>
        <time>2013-05-15T20:53:00Z</time>
      </trkpt>
      <trkpt lat="59.9559243" lon="17.7222588">
        <ele>56.3745</ele>
        <time>2013-05-15T20:53:01Z</time>
      </trkpt>
      <trkpt lat="59.9559151" lon="17.7222152">
        <ele>56.3745</ele>
        <time>2013-05-15T20:53:02Z</time>
      </trkpt>
      <trkpt lat="59.9559078" lon="17.7221762">
        <ele>55.8938</ele>
        <time>2013-05-15T20:53:03Z</time>
      </trkpt>
      <trkpt lat="59.9558994" lon="17.7221287">
        <ele>55.4131</ele>
        <time>2013-05-15T20:53:04Z</time>
      </trkpt>
      <trkpt lat="59.955895" lon="17.7220719">
        <ele>56.3745</ele>
        <time>2013-05-15T20:53:05Z</time>
      </trkpt>
      <trkpt lat="59.955893" lon="17.7220186">
        <ele>56.3745</ele>
        <time>2013-05-15T20:53:06Z</time>
      </trkpt>
      <trkpt lat="59.9558889" lon="17.7219767">
        <ele>55.8938</ele>
        <time>2013-05-15T20:53:07Z</time>
      </trkpt>
      <trkpt lat="59.9558868" lon="17.7219368">
        <ele>55.4131</ele>
        <time>2013-05-15T20:53:08Z</time>
      </trkpt>
      <trkpt lat="59.9558901" lon="17.7218895">
        <ele>55.8938</ele>
        <time>2013-05-15T20:53:09Z</time>
      </trkpt>
      <trkpt lat="59.9558956" lon="17.7218445">
        <ele>55.8938</ele>
        <time>2013-05-15T20:53:10Z</time>
      </trkpt>
      <trkpt lat="59.955897" lon="17.7218058">
        <ele>55.4131</ele>
        <time>2013-05-15T20:53:11Z</time>
      </trkpt>
      <trkpt lat="59.9559003" lon="17.7217631">
        <ele>54.9324</ele>
        <time>2013-05-15T20:53:12Z</time>
      </trkpt>
      <trkpt lat="59.9559038" lon="17.7217185">
        <ele>54.4518</ele>
        <time>2013-05-15T20:53:13Z</time>
      </trkpt>
      <trkpt lat="59.9559116" lon="17.7216678">
        <ele>54.4518</ele>
        <time>2013-05-15T20:53:14Z</time>
      </trkpt>
      <trkpt lat="59.9559207" lon="17.7216198">
        <ele>54.9324</ele>
        <time>2013-05-15T20:53:15Z</time>
      </trkpt>
      <trkpt lat="59.955925" lon="17.7215693">
        <ele>55.4131</ele>
        <time>2013-05-15T20:53:16Z</time>
      </trkpt>
      <trkpt lat="59.9559282" lon="17.721514">
        <ele>55.8938</ele>
        <time>2013-05-15T20:53:17Z</time>
      </trkpt>
      <trkpt lat="59.9559277" lon="17.7214607">
        <ele>55.4131</ele>
        <time>2013-05-15T20:53:18Z</time>
      </trkpt>
      <trkpt lat="59.955925" lon="17.7214172">
        <ele>55.4131</ele>
        <time>2013-05-15T20:53:19Z</time>
      </trkpt>
      <trkpt lat="59.9559198" lon="17.7213792">
        <ele>55.4131</ele>
        <time>2013-05-15T20:53:20Z</time>
      </trkpt>
      <trkpt lat="59.9559147" lon="17.7213362">
        <ele>55.8938</ele>
        <time>2013-05-15T20:53:21Z</time>
      </trkpt>
      <trkpt lat="59.9559083" lon="17.7212892">
        <ele>55.8938</ele>
        <time>2013-05-15T20:53:22Z</time>
      </trkpt>
      <trkpt lat="59.9558955" lon="17.7212434">
        <ele>55.4131</ele>
        <time>2013-05-15T20:53:23Z</time>
      </trkpt>
      <trkpt lat="59.9558824" lon="17.7212038">
        <ele>54.4518</ele>
        <time>2013-05-15T20:53:24Z</time>
      </trkpt>
      <trkpt lat="59.9558692" lon="17.721182">
        <ele>53.9712</ele>
        <time>2013-05-15T20:53:25Z</time>
      </trkpt>
      <trkpt lat="59.9558537" lon="17.7211799">
        <ele>52.0486</ele>
        <time>2013-05-15T20:53:26Z</time>
      </trkpt>
      <trkpt lat="59.9558386" lon="17.7211742">
        <ele>51.5679</ele>
        <time>2013-05-15T20:53:27Z</time>
      </trkpt>
      <trkpt lat="59.9558205" lon="17.7211733">
        <ele>51.5679</ele>
        <time>2013-05-15T20:53:28Z</time>
      </trkpt>
      <trkpt lat="59.9558031" lon="17.7211774">
        <ele>51.0872</ele>
        <time>2013-05-15T20:53:29Z</time>
      </trkpt>
      <trkpt lat="59.9557822" lon="17.7211819">
        <ele>50.6066</ele>
        <time>2013-05-15T20:53:30Z</time>
      </trkpt>
      <trkpt lat="59.9557634" lon="17.7211902">
        <ele>50.6066</ele>
        <time>2013-05-15T20:53:31Z</time>
      </trkpt>
      <trkpt lat="59.9557463" lon="17.7212001">
        <ele>50.6066</ele>
        <time>2013-05-15T20:53:32Z</time>
      </trkpt>
      <trkpt lat="59.9557273" lon="17.7212208">
        <ele>49.6453</ele>
        <time>2013-05-15T20:53:33Z</time>
      </trkpt>
      <trkpt lat="59.9557111" lon="17.721238">
        <ele>49.1646</ele>
        <time>2013-05-15T20:53:34Z</time>
      </trkpt>
      <trkpt lat="59.9556946" lon="17.7212565">
        <ele>48.684</ele>
        <time>2013-05-15T20:53:35Z</time>
      </trkpt>
      <trkpt lat="59.955671" lon="17.7212784">
        <ele>47.7225</ele>
        <time>2013-05-15T20:53:36Z</time>
      </trkpt>
      <trkpt lat="59.9556427" lon="17.7213012">
        <ele>47.7225</ele>
        <time>2013-05-15T20:53:37Z</time>
      </trkpt>
      <trkpt lat="59.9556251" lon="17.7213121">
        <ele>46.2806</ele>
        <time>2013-05-15T20:53:38Z</time>
      </trkpt>
      <trkpt lat="59.9556083" lon="17.7213127">
        <ele>45.7999</ele>
        <time>2013-05-15T20:53:39Z</time>
      </trkpt>
      <trkpt lat="59.9555905" lon="17.7213052">
        <ele>44.8386</ele>
        <time>2013-05-15T20:53:40Z</time>
      </trkpt>
      <trkpt lat="59.9555715" lon="17.7212963">
        <ele>44.8386</ele>
        <time>2013-05-15T20:53:41Z</time>
      </trkpt>
      <trkpt lat="59.9555536" lon="17.7212913">
        <ele>44.358</ele>
        <time>2013-05-15T20:53:42Z</time>
      </trkpt>
      <trkpt lat="59.9555334" lon="17.7212927">
        <ele>42.916</ele>
        <time>2013-05-15T20:53:43Z</time>
      </trkpt>
      <trkpt lat="59.9555075" lon="17.7212968">
        <ele>42.916</ele>
        <time>2013-05-15T20:53:44Z</time>
      </trkpt>
      <trkpt lat="59.9554821" lon="17.7213059">
        <ele>42.4354</ele>
        <time>2013-05-15T20:53:45Z</time>
      </trkpt>
      <trkpt lat="59.9554569" lon="17.7213105">
        <ele>42.4354</ele>
        <time>2013-05-15T20:53:46Z</time>
      </trkpt>
      <trkpt lat="59.9554301" lon="17.7213113">
        <ele>41.9547</ele>
        <time>2013-05-15T20:53:47Z</time>
      </trkpt>
      <trkpt lat="59.9554059" lon="17.7213085">
        <ele>41.9547</ele>
        <time>2013-05-15T20:53:48Z</time>
      </trkpt>
      <trkpt lat="59.9553845" lon="17.7212986">
        <ele>41.474</ele>
        <time>2013-05-15T20:53:49Z</time>
      </trkpt>
      <trkpt lat="59.9553608" lon="17.7212918">
        <ele>40.9934</ele>
        <time>2013-05-15T20:53:50Z</time>
      </trkpt>
      <trkpt lat="59.9553411" lon="17.7212856">
        <ele>40.5128</ele>
        <time>2013-05-15T20:53:51Z</time>
      </trkpt>
      <trkpt lat="59.9553239" lon="17.7212695">
        <ele>40.0321</ele>
        <time>2013-05-15T20:53:52Z</time>
      </trkpt>
      <trkpt lat="59.9553079" lon="17.7212591">
        <ele>39.5513</ele>
        <time>2013-05-15T20:53:53Z</time>
      </trkpt>
      <trkpt lat="59.9552903" lon="17.7212597">
        <ele>39.5513</ele>
        <time>2013-05-15T20:53:54Z</time>
      </trkpt>
      <trkpt lat="59.9552628" lon="17.7212711">
        <ele>40.0321</ele>
        <time>2013-05-15T20:53:55Z</time>
      </trkpt>
      <trkpt lat="59.9552402" lon="17.7212737">
        <ele>40.5128</ele>
        <time>2013-05-15T20:53:56Z</time>
      </trkpt>
      <trkpt lat="59.9552266" lon="17.7212728">
        <ele>39.5513</ele>
        <time>2013-05-15T20:53:57Z</time>
      </trkpt>
      <trkpt lat="59.9552087" lon="17.7212735">
        <ele>39.0707</ele>
        <time>2013-05-15T20:53:58Z</time>
      </trkpt>
      <trkpt lat="59.9551831" lon="17.7212813">
        <ele>38.5901</ele>
        <time>2013-05-15T20:53:59Z</time>
      </trkpt>
      <trkpt lat="59.9551588" lon="17.7212836">
        <ele>37.6287</ele>
        <time>2013-05-15T20:54:00Z</time>
      </trkpt>
      <trkpt lat="59.955134" lon="17.7212694">
        <ele>37.6287</ele>
        <time>2013-05-15T20:54:01Z</time>
      </trkpt>
      <trkpt lat="59.9551112" lon="17.7212514">
        <ele>36.6675</ele>
        <time>2013-05-15T20:54:02Z</time>
      </trkpt>
      <trkpt lat="59.9550906" lon="17.7212338">
        <ele>36.1868</ele>
        <time>2013-05-15T20:54:03Z</time>
      </trkpt>
      <trkpt lat="59.9550714" lon="17.7212234">
        <ele>36.1868</ele>
        <time>2013-05-15T20:54:04Z</time>
      </trkpt>
      <trkpt lat="59.9550537" lon="17.7212104">
        <ele>35.2255</ele>
        <time>2013-05-15T20:54:05Z</time>
      </trkpt>
      <trkpt lat="59.9550311" lon="17.7211969">
        <ele>34.7449</ele>
        <time>2013-05-15T20:54:06Z</time>
      </trkpt>
      <trkpt lat="59.9550103" lon="17.721192">
        <ele>34.2642</ele>
        <time>2013-05-15T20:54:07Z</time>
      </trkpt>
      <trkpt lat="59.9549881" lon="17.721196">
        <ele>34.2642</ele>
        <time>2013-05-15T20:54:08Z</time>
      </trkpt>
      <trkpt lat="59.954974" lon="17.7211929">
        <ele>33.3029</ele>
        <time>2013-05-15T20:54:09Z</time>
      </trkpt>
      <trkpt lat="59.9549556" lon="17.7211771">
        <ele>32.8223</ele>
        <time>2013-05-15T20:54:10Z</time>
      </trkpt>
      <trkpt lat="59.9549388" lon="17.7211442">
        <ele>31.8607</ele>
        <time>2013-05-15T20:54:11Z</time>
      </trkpt>
      <trkpt lat="59.9549258" lon="17.7211018">
        <ele>31.3801</ele>
        <time>2013-05-15T20:54:12Z</time>
      </trkpt>
      <trkpt lat="59.9549188" lon="17.721064">
        <ele>30.8995</ele>
        <time>2013-05-15T20:54:13Z</time>
      </trkpt>
      <trkpt lat="59.9549075" lon="17.7210296">
        <ele>31.3801</ele>
        <time>2013-05-15T20:54:14Z</time>
      </trkpt>
      <trkpt lat="59.9548942" lon="17.7209887">
        <ele>31.8607</ele>
        <time>2013-05-15T20:54:15Z</time>
      </trkpt>
      <trkpt lat="59.954881" lon="17.720936">
        <ele>31.8607</ele>
        <time>2013-05-15T20:54:16Z</time>
      </trkpt>
      <trkpt lat="59.9548688" lon="17.7208897">
        <ele>32.3416</ele>
        <time>2013-05-15T20:54:17Z</time>
      </trkpt>
      <trkpt lat="59.9548617" lon="17.7208479">
        <ele>32.3416</ele>
        <time>2013-05-15T20:54:18Z</time>
      </trkpt>
      <trkpt lat="59.954861" lon="17.7207983">
        <ele>32.8223</ele>
        <time>2013-05-15T20:54:19Z</time>
      </trkpt>
      <trkpt lat="59.9548503" lon="17.7207628">
        <ele>34.2642</ele>
        <time>2013-05-15T20:54:20Z</time>
      </trkpt>
      <trkpt lat="59.9548538" lon="17.7207194">
        <ele>34.2642</ele>
        <time>2013-05-15T20:54:21Z</time>
      </trkpt>
      <trkpt lat="59.9548572" lon="17.7206753">
        <ele>35.2255</ele>
        <time>2013-05-15T20:54:22Z</time>
      </trkpt>
      <trkpt lat="59.9548616" lon="17.7206267">
        <ele>35.7061</ele>
        <time>2013-05-15T20:54:23Z</time>
      </trkpt>
      <trkpt lat="59.9548705" lon="17.720576">
        <ele>37.1481</ele>
        <time>2013-05-15T20:54:24Z</time>
      </trkpt>
      <trkpt lat="59.9548821" lon="17.7205398">
        <ele>38.1094</ele>
        <time>2013-05-15T20:54:25Z</time>
      </trkpt>
      <trkpt lat="59.95489" lon="17.7205123">
        <ele>38.5901</ele>
        <time>2013-05-15T20:54:26Z</time>
      </trkpt>
      <trkpt lat="59.954903" lon="17.7204868">
        <ele>39.0707</ele>
        <time>2013-05-15T20:54:27Z</time>
      </trkpt>
      <trkpt lat="59.9549138" lon="17.7204608">
        <ele>40.0321</ele>
        <time>2013-05-15T20:54:28Z</time>
      </trkpt>
      <trkpt lat="59.9549245" lon="17.7204359">
        <ele>40.9934</ele>
        <time>2013-05-15T20:54:29Z</time>
      </trkpt>
      <trkpt lat="59.9549408" lon="17.7204097">
        <ele>41.9547</ele>
        <time>2013-05-15T20:54:30Z</time>
      </trkpt>
      <trkpt lat="59.9549553" lon="17.7203854">
        <ele>42.4354</ele>
        <time>2013-05-15T20:54:31Z</time>
      </trkpt>
      <trkpt lat="59.9549751" lon="17.7203637">
        <ele>42.4354</ele>
        <time>2013-05-15T20:54:32Z</time>
      </trkpt>
      <trkpt lat="59.9549971" lon="17.7203392">
        <ele>43.3966</ele>
        <time>2013-05-15T20:54:33Z</time>
      </trkpt>
      <trkpt lat="59.9550166" lon="17.7203198">
        <ele>43.8773</ele>
        <time>2013-05-15T20:54:34Z</time>
      </trkpt>
      <trkpt lat="59.9550347" lon="17.7203053">
        <ele>43.8773</ele>
        <time>2013-05-15T20:54:35Z</time>
      </trkpt>
      <trkpt lat="59.9550551" lon="17.7202884">
        <ele>44.358</ele>
        <time>2013-05-15T20:54:36Z</time>
      </trkpt>
      <trkpt lat="59.9550735" lon="17.720267">
        <ele>45.3192</ele>
        <time>2013-05-15T20:54:37Z</time>
      </trkpt>
      <trkpt lat="59.9550935" lon="17.720248">
        <ele>45.7999</ele>
        <time>2013-05-15T20:54:38Z</time>
      </trkpt>
      <trkpt lat="59.9551178" lon="17.7202232">
        <ele>46.7612</ele>
        <time>2013-05-15T20:54:39Z</time>
      </trkpt>
      <trkpt lat="59.9551404" lon="17.720208">
        <ele>47.2418</ele>
        <time>2013-05-15T20:54:40Z</time>
      </trkpt>
      <trkpt lat="59.9551599" lon="17.7201987">
        <ele>47.2418</ele>
        <time>2013-05-15T20:54:41Z</time>
      </trkpt>
      <trkpt lat="59.9551787" lon="17.7201838">
        <ele>47.2418</ele>
        <time>2013-05-15T20:54:42Z</time>
      </trkpt>
      <trkpt lat="59.9551992" lon="17.7201737">
        <ele>46.7612</ele>
        <time>2013-05-15T20:54:43Z</time>
      </trkpt>
      <trkpt lat="59.9552178" lon="17.7201629">
        <ele>46.7612</ele>
        <time>2013-05-15T20:54:44Z</time>
      </trkpt>
      <trkpt lat="59.9552359" lon="17.7201411">
        <ele>47.2418</ele>
        <time>2013-05-15T20:54:45Z</time>
      </trkpt>
      <trkpt lat="59.9552573" lon="17.7201139">
        <ele>47.7225</ele>
        <time>2013-05-15T20:54:46Z</time>
      </trkpt>
      <trkpt lat="59.955281" lon="17.7200894">
        <ele>47.7225</ele>
        <time>2013-05-15T20:54:47Z</time>
      </trkpt>
      <trkpt lat="59.9553001" lon="17.720059">
        <ele>47.7225</ele>
        <time>2013-05-15T20:54:48Z</time>
      </trkpt>
      <trkpt lat="59.9553214" lon="17.7200212">
        <ele>48.684</ele>
        <time>2013-05-15T20:54:49Z</time>
      </trkpt>
      <trkpt lat="59.9553459" lon="17.7199838">
        <ele>50.126</ele>
        <time>2013-05-15T20:54:50Z</time>
      </trkpt>
      <trkpt lat="59.9553649" lon="17.7199622">
        <ele>50.6066</ele>
        <time>2013-05-15T20:54:51Z</time>
      </trkpt>
      <trkpt lat="59.9553862" lon="17.7199427">
        <ele>51.0872</ele>
        <time>2013-05-15T20:54:52Z</time>
      </trkpt>
      <trkpt lat="59.955405" lon="17.7199243">
        <ele>51.5679</ele>
        <time>2013-05-15T20:54:53Z</time>
      </trkpt>
      <trkpt lat="59.9554216" lon="17.7198992">
        <ele>52.0486</ele>
        <time>2013-05-15T20:54:54Z</time>
      </trkpt>
      <trkpt lat="59.9554386" lon="17.7198787">
        <ele>52.0486</ele>
        <time>2013-05-15T20:54:55Z</time>
      </trkpt>
      <trkpt lat="59.9554594" lon="17.7198679">
        <ele>52.0486</ele>
        <time>2013-05-15T20:54:56Z</time>
      </trkpt>
      <trkpt lat="59.9554841" lon="17.7198589">
        <ele>52.5292</ele>
        <time>2013-05-15T20:54:57Z</time>
      </trkpt>
      <trkpt lat="59.9555075" lon="17.719845">
        <ele>52.5292</ele>
        <time>2013-05-15T20:54:58Z</time>
      </trkpt>
      <trkpt lat="59.9555271" lon="17.7198331">
        <ele>52.5292</ele>
        <time>2013-05-15T20:54:59Z</time>
      </trkpt>
      <trkpt lat="59.9555516" lon="17.7198187">
        <ele>53.0098</ele>
        <time>2013-05-15T20:55:00Z</time>
      </trkpt>
      <trkpt lat="59.9555784" lon="17.7198031">
        <ele>53.0098</ele>
        <time>2013-05-15T20:55:01Z</time>
      </trkpt>
      <trkpt lat="59.9556065" lon="17.7197904">
        <ele>53.0098</ele>
        <time>2013-05-15T20:55:02Z</time>
      </trkpt>
      <trkpt lat="59.9556312" lon="17.7197729">
        <ele>53.4905</ele>
        <time>2013-05-15T20:55:03Z</time>
      </trkpt>
      <trkpt lat="59.9556518" lon="17.7197482">
        <ele>53.0098</ele>
        <time>2013-05-15T20:55:04Z</time>
      </trkpt>
      <trkpt lat="59.9556722" lon="17.7197242">
        <ele>53.0098</ele>
        <time>2013-05-15T20:55:05Z</time>
      </trkpt>
      <trkpt lat="59.9556957" lon="17.7196964">
        <ele>53.0098</ele>
        <time>2013-05-15T20:55:06Z</time>
      </trkpt>
      <trkpt lat="59.9557163" lon="17.7196689">
        <ele>52.5292</ele>
        <time>2013-05-15T20:55:07Z</time>
      </trkpt>
      <trkpt lat="59.9557369" lon="17.7196358">
        <ele>53.0098</ele>
        <time>2013-05-15T20:55:08Z</time>
      </trkpt>
      <trkpt lat="59.9557615" lon="17.7196099">
        <ele>53.0098</ele>
        <time>2013-05-15T20:55:09Z</time>
      </trkpt>
      <trkpt lat="59.9557861" lon="17.7195854">
        <ele>53.4905</ele>
        <time>2013-05-15T20:55:10Z</time>
      </trkpt>
      <trkpt lat="59.9558065" lon="17.7195609">
        <ele>53.0098</ele>
        <time>2013-05-15T20:55:11Z</time>
      </trkpt>
      <trkpt lat="59.955828" lon="17.7195383">
        <ele>53.0098</ele>
        <time>2013-05-15T20:55:12Z</time>
      </trkpt>
      <trkpt lat="59.9558507" lon="17.7195291">
        <ele>53.4905</ele>
        <time>2013-05-15T20:55:13Z</time>
      </trkpt>
      <trkpt lat="59.95587" lon="17.719515">
        <ele>53.4905</ele>
        <time>2013-05-15T20:55:14Z</time>
      </trkpt>
      <trkpt lat="59.9558868" lon="17.7194974">
        <ele>53.0098</ele>
        <time>2013-05-15T20:55:15Z</time>
      </trkpt>
      <trkpt lat="59.9559069" lon="17.7194796">
        <ele>53.0098</ele>
        <time>2013-05-15T20:55:16Z</time>
      </trkpt>
      <trkpt lat="59.955923" lon="17.719461">
        <ele>53.0098</ele>
        <time>2013-05-15T20:55:17Z</time>
      </trkpt>
      <trkpt lat="59.9559347" lon="17.7194375">
        <ele>52.0486</ele>
        <time>2013-05-15T20:55:18Z</time>
      </trkpt>
      <trkpt lat="59.9559525" lon="17.7194121">
        <ele>52.5292</ele>
        <time>2013-05-15T20:55:19Z</time>
      </trkpt>
      <trkpt lat="59.9559711" lon="17.7193888">
        <ele>52.5292</ele>
        <time>2013-05-15T20:55:20Z</time>
      </trkpt>
      <trkpt lat="59.955992" lon="17.7193662">
        <ele>52.5292</ele>
        <time>2013-05-15T20:55:21Z</time>
      </trkpt>
      <trkpt lat="59.956007" lon="17.7193363">
        <ele>52.0486</ele>
        <time>2013-05-15T20:55:22Z</time>
      </trkpt>
      <trkpt lat="59.9560229" lon="17.7193102">
        <ele>52.0486</ele>
        <time>2013-05-15T20:55:23Z</time>
      </trkpt>
      <trkpt lat="59.9560422" lon="17.7192778">
        <ele>52.5292</ele>
        <time>2013-05-15T20:55:24Z</time>
      </trkpt>
      <trkpt lat="59.95606" lon="17.719246">
        <ele>53.0098</ele>
        <time>2013-05-15T20:55:25Z</time>
      </trkpt>
      <trkpt lat="59.9560773" lon="17.7192074">
        <ele>53.4905</ele>
        <time>2013-05-15T20:55:26Z</time>
      </trkpt>
      <trkpt lat="59.9560929" lon="17.7191638">
        <ele>53.9712</ele>
        <time>2013-05-15T20:55:27Z</time>
      </trkpt>
      <trkpt lat="59.9561036" lon="17.7191289">
        <ele>53.9712</ele>
        <time>2013-05-15T20:55:28Z</time>
      </trkpt>
      <trkpt lat="59.9561147" lon="17.7190953">
        <ele>53.9712</ele>
        <time>2013-05-15T20:55:29Z</time>
      </trkpt>
      <trkpt lat="59.9561275" lon="17.7190632">
        <ele>53.9712</ele>
        <time>2013-05-15T20:55:30Z</time>
      </trkpt>
      <trkpt lat="59.9561426" lon="17.7190235">
        <ele>54.9324</ele>
        <time>2013-05-15T20:55:31Z</time>
      </trkpt>
      <trkpt lat="59.956154" lon="17.7189829">
        <ele>54.9324</ele>
        <time>2013-05-15T20:55:32Z</time>
      </trkpt>
      <trkpt lat="59.9561647" lon="17.7189426">
        <ele>54.9324</ele>
        <time>2013-05-15T20:55:33Z</time>
      </trkpt>
      <trkpt lat="59.9561676" lon="17.7189033">
        <ele>54.4518</ele>
        <time>2013-05-15T20:55:34Z</time>
      </trkpt>
      <trkpt lat="59.9561696" lon="17.7188575">
        <ele>54.9324</ele>
        <time>2013-05-15T20:55:35Z</time>
      </trkpt>
      <trkpt lat="59.9561683" lon="17.7188093">
        <ele>55.4131</ele>
        <time>2013-05-15T20:55:36Z</time>
      </trkpt>
      <trkpt lat="59.9561634" lon="17.7187716">
        <ele>55.8938</ele>
        <time>2013-05-15T20:55:37Z</time>
      </trkpt>
      <trkpt lat="59.9561659" lon="17.7187277">
        <ele>56.3745</ele>
        <time>2013-05-15T20:55:38Z</time>
      </trkpt>
      <trkpt lat="59.9561726" lon="17.7186774">
        <ele>56.3745</ele>
        <time>2013-05-15T20:55:39Z</time>
      </trkpt>
      <trkpt lat="59.9561758" lon="17.7186176">
        <ele>56.3745</ele>
        <time>2013-05-15T20:55:40Z</time>
      </trkpt>
      <trkpt lat="59.9561701" lon="17.7185532">
        <ele>56.3745</ele>
        <time>2013-05-15T20:55:41Z</time>
      </trkpt>
      <trkpt lat="59.9561567" lon="17.7184955">
        <ele>55.8938</ele>
        <time>2013-05-15T20:55:42Z</time>
      </trkpt>
      <trkpt lat="59.9561456" lon="17.7184366">
        <ele>55.8938</ele>
        <time>2013-05-15T20:55:43Z</time>
      </trkpt>
      <trkpt lat="59.9561336" lon="17.7183749">
        <ele>55.8938</ele>
        <time>2013-05-15T20:55:44Z</time>
      </trkpt>
      <trkpt lat="59.9561214" lon="17.7183262">
        <ele>54.9324</ele>
        <time>2013-05-15T20:55:45Z</time>
      </trkpt>
      <trkpt lat="59.9561096" lon="17.7182837">
        <ele>54.4518</ele>
        <time>2013-05-15T20:55:46Z</time>
      </trkpt>
      <trkpt lat="59.9560979" lon="17.7182314">
        <ele>54.4518</ele>
        <time>2013-05-15T20:55:47Z</time>
      </trkpt>
      <trkpt lat="59.9560833" lon="17.7181815">
        <ele>54.4518</ele>
        <time>2013-05-15T20:55:48Z</time>
      </trkpt>
      <trkpt lat="59.9560673" lon="17.718134">
        <ele>53.4905</ele>
        <time>2013-05-15T20:55:49Z</time>
      </trkpt>
      <trkpt lat="59.9560505" lon="17.7180802">
        <ele>53.0098</ele>
        <time>2013-05-15T20:55:50Z</time>
      </trkpt>
      <trkpt lat="59.9560303" lon="17.7180259">
        <ele>53.0098</ele>
        <time>2013-05-15T20:55:51Z</time>
      </trkpt>
      <trkpt lat="59.9560136" lon="17.717977">
        <ele>52.0486</ele>
        <time>2013-05-15T20:55:52Z</time>
      </trkpt>
      <trkpt lat="59.9560002" lon="17.7179391">
        <ele>51.5679</ele>
        <time>2013-05-15T20:55:53Z</time>
      </trkpt>
      <trkpt lat="59.9559903" lon="17.7178943">
        <ele>50.6066</ele>
        <time>2013-05-15T20:55:54Z</time>
      </trkpt>
      <trkpt lat="59.9559759" lon="17.717846">
        <ele>50.6066</ele>
        <time>2013-05-15T20:55:55Z</time>
      </trkpt>
      <trkpt lat="59.9559603" lon="17.7178036">
        <ele>50.126</ele>
        <time>2013-05-15T20:55:56Z</time>
      </trkpt>
      <trkpt lat="59.9559416" lon="17.7177611">
        <ele>50.126</ele>
        <time>2013-05-15T20:55:57Z</time>
      </trkpt>
      <trkpt lat="59.9559222" lon="17.7177269">
        <ele>50.6066</ele>
        <time>2013-05-15T20:55:58Z</time>
      </trkpt>
      <trkpt lat="59.9559012" lon="17.7176907">
        <ele>50.6066</ele>
        <time>2013-05-15T20:55:59Z</time>
      </trkpt>
      <trkpt lat="59.9558853" lon="17.7176426">
        <ele>51.0872</ele>
        <time>2013-05-15T20:56:00Z</time>
      </trkpt>
      <trkpt lat="59.9558684" lon="17.7176019">
        <ele>51.5679</ele>
        <time>2013-05-15T20:56:01Z</time>
      </trkpt>
      <trkpt lat="59.9558572" lon="17.7175511">
        <ele>51.5679</ele>
        <time>2013-05-15T20:56:02Z</time>
      </trkpt>
      <trkpt lat="59.9558504" lon="17.7175015">
        <ele>51.0872</ele>
        <time>2013-05-15T20:56:03Z</time>
      </trkpt>
      <trkpt lat="59.9558422" lon="17.7174487">
        <ele>50.6066</ele>
        <time>2013-05-15T20:56:04Z</time>
      </trkpt>
      <trkpt lat="59.9558318" lon="17.717391">
        <ele>50.6066</ele>
        <time>2013-05-15T20:56:05Z</time>
      </trkpt>
      <trkpt lat="59.9558114" lon="17.7173471">
        <ele>50.126</ele>
        <time>2013-05-15T20:56:06Z</time>
      </trkpt>
      <trkpt lat="59.9557888" lon="17.7173087">
        <ele>49.6453</ele>
        <time>2013-05-15T20:56:07Z</time>
      </trkpt>
      <trkpt lat="59.955768" lon="17.7172675">
        <ele>49.1646</ele>
        <time>2013-05-15T20:56:08Z</time>
      </trkpt>
      <trkpt lat="59.9557494" lon="17.7172195">
        <ele>48.684</ele>
        <time>2013-05-15T20:56:09Z</time>
      </trkpt>
      <trkpt lat="59.9557371" lon="17.7171721">
        <ele>48.2034</ele>
        <time>2013-05-15T20:56:10Z</time>
      </trkpt>
      <trkpt lat="59.9557264" lon="17.7171157">
        <ele>47.7225</ele>
        <time>2013-05-15T20:56:11Z</time>
      </trkpt>
      <trkpt lat="59.9557133" lon="17.7170588">
        <ele>46.7612</ele>
        <time>2013-05-15T20:56:12Z</time>
      </trkpt>
      <trkpt lat="59.9556972" lon="17.7170023">
        <ele>46.2806</ele>
        <time>2013-05-15T20:56:13Z</time>
      </trkpt>
      <trkpt lat="59.955681" lon="17.7169597">
        <ele>45.7999</ele>
        <time>2013-05-15T20:56:14Z</time>
      </trkpt>
      <trkpt lat="59.9556588" lon="17.7169212">
        <ele>45.7999</ele>
        <time>2013-05-15T20:56:15Z</time>
      </trkpt>
      <trkpt lat="59.9556435" lon="17.7168694">
        <ele>44.358</ele>
        <time>2013-05-15T20:56:16Z</time>
      </trkpt>
      <trkpt lat="59.9556297" lon="17.7168139">
        <ele>43.3966</ele>
        <time>2013-05-15T20:56:17Z</time>
      </trkpt>
      <trkpt lat="59.9556153" lon="17.7167541">
        <ele>43.8773</ele>
        <time>2013-05-15T20:56:18Z</time>
      </trkpt>
      <trkpt lat="59.9556111" lon="17.7167028">
        <ele>43.3966</ele>
        <time>2013-05-15T20:56:19Z</time>
      </trkpt>
      <trkpt lat="59.9556138" lon="17.7166567">
        <ele>42.916</ele>
        <time>2013-05-15T20:56:20Z</time>
      </trkpt>
      <trkpt lat="59.9556099" lon="17.7166044">
        <ele>42.916</ele>
        <time>2013-05-15T20:56:21Z</time>
      </trkpt>
      <trkpt lat="59.9556026" lon="17.7165624">
        <ele>42.4354</ele>
        <time>2013-05-15T20:56:22Z</time>
      </trkpt>
      <trkpt lat="59.9555929" lon="17.7165161">
        <ele>41.9547</ele>
        <time>2013-05-15T20:56:23Z</time>
      </trkpt>
      <trkpt lat="59.9555827" lon="17.7164686">
        <ele>41.9547</ele>
        <time>2013-05-15T20:56:24Z</time>
      </trkpt>
      <trkpt lat="59.9555718" lon="17.7164221">
        <ele>41.474</ele>
        <time>2013-05-15T20:56:25Z</time>
      </trkpt>
      <trkpt lat="59.955561" lon="17.7163755">
        <ele>41.9547</ele>
        <time>2013-05-15T20:56:26Z</time>
      </trkpt>
      <trkpt lat="59.9555515" lon="17.7163389">
        <ele>41.9547</ele>
        <time>2013-05-15T20:56:27Z</time>
      </trkpt>
      <trkpt lat="59.9555469" lon="17.7162991">
        <ele>41.474</ele>
        <time>2013-05-15T20:56:28Z</time>
      </trkpt>
      <trkpt lat="59.9555402" lon="17.7162509">
        <ele>41.474</ele>
        <time>2013-05-15T20:56:29Z</time>
      </trkpt>
      <trkpt lat="59.9555361" lon="17.7161892">
        <ele>41.474</ele>
        <time>2013-05-15T20:56:30Z</time>
      </trkpt>
      <trkpt lat="59.9555339" lon="17.7161221">
        <ele>41.474</ele>
        <time>2013-05-15T20:56:31Z</time>
      </trkpt>
      <trkpt lat="59.9555309" lon="17.7160635">
        <ele>41.474</ele>
        <time>2013-05-15T20:56:32Z</time>
      </trkpt>
      <trkpt lat="59.9555271" lon="17.7160138">
        <ele>41.9547</ele>
        <time>2013-05-15T20:56:33Z</time>
      </trkpt>
      <trkpt lat="59.955521" lon="17.7159621">
        <ele>41.474</ele>
        <time>2013-05-15T20:56:34Z</time>
      </trkpt>
      <trkpt lat="59.9555159" lon="17.7158994">
        <ele>41.474</ele>
        <time>2013-05-15T20:56:35Z</time>
      </trkpt>
      <trkpt lat="59.9555122" lon="17.7158439">
        <ele>41.474</ele>
        <time>2013-05-15T20:56:36Z</time>
      </trkpt>
      <trkpt lat="59.955509" lon="17.7157828">
        <ele>40.5128</ele>
        <time>2013-05-15T20:56:37Z</time>
      </trkpt>
      <trkpt lat="59.955504" lon="17.7157251">
        <ele>40.0321</ele>
        <time>2013-05-15T20:56:38Z</time>
      </trkpt>
      <trkpt lat="59.9555003" lon="17.7156776">
        <ele>40.0321</ele>
        <time>2013-05-15T20:56:39Z</time>
      </trkpt>
      <trkpt lat="59.9554959" lon="17.7156246">
        <ele>39.5513</ele>
        <time>2013-05-15T20:56:40Z</time>
      </trkpt>
      <trkpt lat="59.9554882" lon="17.7155709">
        <ele>39.0707</ele>
        <time>2013-05-15T20:56:41Z</time>
      </trkpt>
      <trkpt lat="59.955482" lon="17.7155164">
        <ele>39.0707</ele>
        <time>2013-05-15T20:56:42Z</time>
      </trkpt>
      <trkpt lat="59.9554752" lon="17.7154616">
        <ele>39.0707</ele>
        <time>2013-05-15T20:56:43Z</time>
      </trkpt>
      <trkpt lat="59.955471" lon="17.7154078">
        <ele>39.0707</ele>
        <time>2013-05-15T20:56:44Z</time>
      </trkpt>
      <trkpt lat="59.9554666" lon="17.7153596">
        <ele>39.0707</ele>
        <time>2013-05-15T20:56:45Z</time>
      </trkpt>
      <trkpt lat="59.955464" lon="17.7153083">
        <ele>38.5901</ele>
        <time>2013-05-15T20:56:46Z</time>
      </trkpt>
      <trkpt lat="59.9554579" lon="17.7152652">
        <ele>38.1094</ele>
        <time>2013-05-15T20:56:47Z</time>
      </trkpt>
      <trkpt lat="59.9554545" lon="17.7152192">
        <ele>38.1094</ele>
        <time>2013-05-15T20:56:48Z</time>
      </trkpt>
      <trkpt lat="59.955449" lon="17.7151752">
        <ele>38.5901</ele>
        <time>2013-05-15T20:56:49Z</time>
      </trkpt>
      <trkpt lat="59.9554407" lon="17.7151211">
        <ele>39.0707</ele>
        <time>2013-05-15T20:56:50Z</time>
      </trkpt>
      <trkpt lat="59.9554291" lon="17.7150686">
        <ele>39.0707</ele>
        <time>2013-05-15T20:56:51Z</time>
      </trkpt>
      <trkpt lat="59.9554209" lon="17.7150302">
        <ele>39.5513</ele>
        <time>2013-05-15T20:56:52Z</time>
      </trkpt>
      <trkpt lat="59.9554112" lon="17.7149871">
        <ele>40.0321</ele>
        <time>2013-05-15T20:56:53Z</time>
      </trkpt>
      <trkpt lat="59.9554044" lon="17.7149379">
        <ele>39.5513</ele>
        <time>2013-05-15T20:56:54Z</time>
      </trkpt>
      <trkpt lat="59.9553973" lon="17.7148851">
        <ele>39.5513</ele>
        <time>2013-05-15T20:56:55Z</time>
      </trkpt>
      <trkpt lat="59.9553831" lon="17.714843">
        <ele>39.5513</ele>
        <time>2013-05-15T20:56:56Z</time>
      </trkpt>
      <trkpt lat="59.9553682" lon="17.714803">
        <ele>39.5513</ele>
        <time>2013-05-15T20:56:57Z</time>
      </trkpt>
      <trkpt lat="59.9553535" lon="17.7147675">
        <ele>40.0321</ele>
        <time>2013-05-15T20:56:58Z</time>
      </trkpt>
      <trkpt lat="59.9553431" lon="17.7147295">
        <ele>40.0321</ele>
        <time>2013-05-15T20:56:59Z</time>
      </trkpt>
      <trkpt lat="59.9553343" lon="17.7146872">
        <ele>40.5128</ele>
        <time>2013-05-15T20:57:00Z</time>
      </trkpt>
      <trkpt lat="59.9553252" lon="17.7146456">
        <ele>40.0321</ele>
        <time>2013-05-15T20:57:01Z</time>
      </trkpt>
      <trkpt lat="59.9553209" lon="17.7146069">
        <ele>40.5128</ele>
        <time>2013-05-15T20:57:02Z</time>
      </trkpt>
      <trkpt lat="59.9553138" lon="17.7145655">
        <ele>40.5128</ele>
        <time>2013-05-15T20:57:03Z</time>
      </trkpt>
      <trkpt lat="59.9553055" lon="17.7145276">
        <ele>40.0321</ele>
        <time>2013-05-15T20:57:04Z</time>
      </trkpt>
      <trkpt lat="59.955297" lon="17.7144933">
        <ele>40.0321</ele>
        <time>2013-05-15T20:57:05Z</time>
      </trkpt>
      <trkpt lat="59.9552882" lon="17.7144497">
        <ele>39.5513</ele>
        <time>2013-05-15T20:57:06Z</time>
      </trkpt>
      <trkpt lat="59.955278" lon="17.7143972">
        <ele>39.5513</ele>
        <time>2013-05-15T20:57:07Z</time>
      </trkpt>
      <trkpt lat="59.9552676" lon="17.7143458">
        <ele>39.5513</ele>
        <time>2013-05-15T20:57:08Z</time>
      </trkpt>
      <trkpt lat="59.9552528" lon="17.7143069">
        <ele>39.5513</ele>
        <time>2013-05-15T20:57:09Z</time>
      </trkpt>
      <trkpt lat="59.9552407" lon="17.7142686">
        <ele>40.0321</ele>
        <time>2013-05-15T20:57:10Z</time>
      </trkpt>
      <trkpt lat="59.9552298" lon="17.7142229">
        <ele>40.0321</ele>
        <time>2013-05-15T20:57:11Z</time>
      </trkpt>
      <trkpt lat="59.9552123" lon="17.7141748">
        <ele>39.5513</ele>
        <time>2013-05-15T20:57:12Z</time>
      </trkpt>
      <trkpt lat="59.9551953" lon="17.714133">
        <ele>39.5513</ele>
        <time>2013-05-15T20:57:13Z</time>
      </trkpt>
      <trkpt lat="59.9551781" lon="17.7141112">
        <ele>39.0707</ele>
        <time>2013-05-15T20:57:14Z</time>
      </trkpt>
      <trkpt lat="59.9551599" lon="17.7141122">
        <ele>39.0707</ele>
        <time>2013-05-15T20:57:15Z</time>
      </trkpt>
      <trkpt lat="59.9551479" lon="17.7141413">
        <ele>39.0707</ele>
        <time>2013-05-15T20:57:16Z</time>
      </trkpt>
      <trkpt lat="59.9551356" lon="17.7141874">
        <ele>38.1094</ele>
        <time>2013-05-15T20:57:17Z</time>
      </trkpt>
      <trkpt lat="59.9551304" lon="17.7142266">
        <ele>38.5901</ele>
        <time>2013-05-15T20:57:18Z</time>
      </trkpt>
      <trkpt lat="59.9551235" lon="17.7142573">
        <ele>38.5901</ele>
        <time>2013-05-15T20:57:19Z</time>
      </trkpt>
      <trkpt lat="59.9551074" lon="17.714284">
        <ele>38.5901</ele>
        <time>2013-05-15T20:57:20Z</time>
      </trkpt>
      <trkpt lat="59.9550833" lon="17.7143027">
        <ele>38.1094</ele>
        <time>2013-05-15T20:57:21Z</time>
      </trkpt>
      <trkpt lat="59.9550563" lon="17.71432">
        <ele>37.6287</ele>
        <time>2013-05-15T20:57:22Z</time>
      </trkpt>
      <trkpt lat="59.9550246" lon="17.714353">
        <ele>37.1481</ele>
        <time>2013-05-15T20:57:23Z</time>
      </trkpt>
      <trkpt lat="59.9549976" lon="17.7143841">
        <ele>37.1481</ele>
        <time>2013-05-15T20:57:24Z</time>
      </trkpt>
      <trkpt lat="59.9549753" lon="17.7144171">
        <ele>36.1868</ele>
        <time>2013-05-15T20:57:25Z</time>
      </trkpt>
      <trkpt lat="59.9549531" lon="17.7144539">
        <ele>35.7061</ele>
        <time>2013-05-15T20:57:26Z</time>
      </trkpt>
      <trkpt lat="59.9549304" lon="17.7144965">
        <ele>35.2255</ele>
        <time>2013-05-15T20:57:27Z</time>
      </trkpt>
      <trkpt lat="59.9549077" lon="17.7145345">
        <ele>34.7449</ele>
        <time>2013-05-15T20:57:28Z</time>
      </trkpt>
      <trkpt lat="59.9548863" lon="17.7145756">
        <ele>34.7449</ele>
        <time>2013-05-15T20:57:29Z</time>
      </trkpt>
      <trkpt lat="59.9548655" lon="17.7146199">
        <ele>34.2642</ele>
        <time>2013-05-15T20:57:30Z</time>
      </trkpt>
      <trkpt lat="59.9548441" lon="17.7146639">
        <ele>34.2642</ele>
        <time>2013-05-15T20:57:31Z</time>
      </trkpt>
      <trkpt lat="59.9548202" lon="17.7147084">
        <ele>34.2642</ele>
        <time>2013-05-15T20:57:32Z</time>
      </trkpt>
      <trkpt lat="59.9547958" lon="17.7147442">
        <ele>34.2642</ele>
        <time>2013-05-15T20:57:33Z</time>
      </trkpt>
      <trkpt lat="59.9547718" lon="17.7147692">
        <ele>34.7449</ele>
        <time>2013-05-15T20:57:34Z</time>
      </trkpt>
      <trkpt lat="59.954744" lon="17.7147809">
        <ele>34.7449</ele>
        <time>2013-05-15T20:57:35Z</time>
      </trkpt>
      <trkpt lat="59.9547161" lon="17.714789">
        <ele>34.7449</ele>
        <time>2013-05-15T20:57:36Z</time>
      </trkpt>
      <trkpt lat="59.9546923" lon="17.7147864">
        <ele>34.7449</ele>
        <time>2013-05-15T20:57:37Z</time>
      </trkpt>
      <trkpt lat="59.954673" lon="17.7147733">
        <ele>34.7449</ele>
        <time>2013-05-15T20:57:38Z</time>
      </trkpt>
      <trkpt lat="59.9546501" lon="17.7147571">
        <ele>34.7449</ele>
        <time>2013-05-15T20:57:39Z</time>
      </trkpt>
      <trkpt lat="59.9546253" lon="17.7147421">
        <ele>34.2642</ele>
        <time>2013-05-15T20:57:40Z</time>
      </trkpt>
      <trkpt lat="59.9546036" lon="17.7147353">
        <ele>33.7834</ele>
        <time>2013-05-15T20:57:41Z</time>
      </trkpt>
      <trkpt lat="59.9545828" lon="17.7147367">
        <ele>33.7834</ele>
        <time>2013-05-15T20:57:42Z</time>
      </trkpt>
      <trkpt lat="59.9545614" lon="17.7147403">
        <ele>34.2642</ele>
        <time>2013-05-15T20:57:43Z</time>
      </trkpt>
      <trkpt lat="59.9545419" lon="17.7147364">
        <ele>34.2642</ele>
        <time>2013-05-15T20:57:44Z</time>
      </trkpt>
      <trkpt lat="59.9545197" lon="17.7147311">
        <ele>33.7834</ele>
        <time>2013-05-15T20:57:45Z</time>
      </trkpt>
      <trkpt lat="59.9544895" lon="17.7147372">
        <ele>33.7834</ele>
        <time>2013-05-15T20:57:46Z</time>
      </trkpt>
      <trkpt lat="59.954458" lon="17.7147424">
        <ele>33.3029</ele>
        <time>2013-05-15T20:57:47Z</time>
      </trkpt>
      <trkpt lat="59.9544322" lon="17.7147456">
        <ele>33.3029</ele>
        <time>2013-05-15T20:57:48Z</time>
      </trkpt>
      <trkpt lat="59.9544076" lon="17.7147529">
        <ele>32.8223</ele>
        <time>2013-05-15T20:57:49Z</time>
      </trkpt>
      <trkpt lat="59.9543856" lon="17.7147632">
        <ele>31.8607</ele>
        <time>2013-05-15T20:57:50Z</time>
      </trkpt>
      <trkpt lat="59.9543638" lon="17.714769">
        <ele>31.3801</ele>
        <time>2013-05-15T20:57:51Z</time>
      </trkpt>
      <trkpt lat="59.9543357" lon="17.7147737">
        <ele>30.8995</ele>
        <time>2013-05-15T20:57:52Z</time>
      </trkpt>
      <trkpt lat="59.954309" lon="17.7147776">
        <ele>30.4188</ele>
        <time>2013-05-15T20:57:53Z</time>
      </trkpt>
      <trkpt lat="59.9542831" lon="17.7147811">
        <ele>29.9381</ele>
        <time>2013-05-15T20:57:54Z</time>
      </trkpt>
      <trkpt lat="59.9542586" lon="17.7147841">
        <ele>29.9381</ele>
        <time>2013-05-15T20:57:55Z</time>
      </trkpt>
      <trkpt lat="59.9542378" lon="17.7147841">
        <ele>29.9381</ele>
        <time>2013-05-15T20:57:56Z</time>
      </trkpt>
      <trkpt lat="59.954218" lon="17.7147955">
        <ele>29.9381</ele>
        <time>2013-05-15T20:57:57Z</time>
      </trkpt>
      <trkpt lat="59.9541988" lon="17.7148074">
        <ele>29.4575</ele>
        <time>2013-05-15T20:57:58Z</time>
      </trkpt>
      <trkpt lat="59.9541784" lon="17.7148064">
        <ele>29.4575</ele>
        <time>2013-05-15T20:57:59Z</time>
      </trkpt>
      <trkpt lat="59.954152" lon="17.7148084">
        <ele>29.9381</ele>
        <time>2013-05-15T20:58:00Z</time>
      </trkpt>
      <trkpt lat="59.9541269" lon="17.7148245">
        <ele>29.9381</ele>
        <time>2013-05-15T20:58:01Z</time>
      </trkpt>
      <trkpt lat="59.9541058" lon="17.7148282">
        <ele>29.9381</ele>
        <time>2013-05-15T20:58:02Z</time>
      </trkpt>
      <trkpt lat="59.954085" lon="17.7148445">
        <ele>30.4188</ele>
        <time>2013-05-15T20:58:03Z</time>
      </trkpt>
      <trkpt lat="59.9540619" lon="17.7148619">
        <ele>30.4188</ele>
        <time>2013-05-15T20:58:04Z</time>
      </trkpt>
      <trkpt lat="59.9540375" lon="17.7148826">
        <ele>30.4188</ele>
        <time>2013-05-15T20:58:05Z</time>
      </trkpt>
      <trkpt lat="59.9540155" lon="17.7149042">
        <ele>30.4188</ele>
        <time>2013-05-15T20:58:06Z</time>
      </trkpt>
      <trkpt lat="59.9539939" lon="17.7149203">
        <ele>30.4188</ele>
        <time>2013-05-15T20:58:07Z</time>
      </trkpt>
      <trkpt lat="59.9539737" lon="17.7149182">
        <ele>30.4188</ele>
        <time>2013-05-15T20:58:08Z</time>
      </trkpt>
      <trkpt lat="59.9539545" lon="17.7149142">
        <ele>30.8995</ele>
        <time>2013-05-15T20:58:09Z</time>
      </trkpt>
      <trkpt lat="59.9539347" lon="17.7149203">
        <ele>30.8995</ele>
        <time>2013-05-15T20:58:10Z</time>
      </trkpt>
    </trkseg>
  </trk>
</gpx>